<?xml version="1.0" encoding="UTF-8" standalone="no" ?>
<gpx xmlns="http://www.topografix.com/GPX/1/1" xmlns:xsi="http://www.w3.org/2001/XMLSchema-instance" xsi:schemaLocation="http://www.topografix.com/GPX/1/1 http://www.topografix.com/GPX/1/1/gpx.xsd" version="1.1" creator="VisuGPX - https://www.visugpx.com">
  <metadata>
    <name>Sortie vélo le matin</name>
  </metadata>
  <trk>
    <name><![CDATA[Sortie vélo le matin_1]]></name>
    <trkseg>
      <trkpt lat="50.14414" lon="5.1615">
        <ele>186.6</ele>
        <time>2024-08-09T08:20:39Z</time>
      </trkpt>
      <trkpt lat="50.14415" lon="5.1615">
        <ele>186.6</ele>
        <time>2024-08-09T08:20:40Z</time>
      </trkpt>
      <trkpt lat="50.14414" lon="5.16142">
        <ele>186</ele>
        <time>2024-08-09T08:20:46Z</time>
      </trkpt>
      <trkpt lat="50.14413" lon="5.16134">
        <ele>186</ele>
        <time>2024-08-09T08:20:48Z</time>
      </trkpt>
      <trkpt lat="50.14408" lon="5.16116">
        <ele>185.4</ele>
        <time>2024-08-09T08:20:54Z</time>
      </trkpt>
      <trkpt lat="50.14405" lon="5.16112">
        <ele>185.6</ele>
        <time>2024-08-09T08:20:57Z</time>
      </trkpt>
      <trkpt lat="50.14404" lon="5.16117">
        <ele>185.6</ele>
        <time>2024-08-09T08:20:59Z</time>
      </trkpt>
      <trkpt lat="50.14405" lon="5.16125">
        <ele>185.4</ele>
        <time>2024-08-09T08:21:02Z</time>
      </trkpt>
      <trkpt lat="50.14406" lon="5.16137">
        <ele>185.4</ele>
        <time>2024-08-09T08:21:03Z</time>
      </trkpt>
      <trkpt lat="50.14408" lon="5.1615">
        <ele>185.2</ele>
        <time>2024-08-09T08:21:05Z</time>
      </trkpt>
      <trkpt lat="50.14408" lon="5.16163">
        <ele>185.2</ele>
        <time>2024-08-09T08:21:08Z</time>
      </trkpt>
      <trkpt lat="50.14411" lon="5.16196">
        <ele>184.8</ele>
        <time>2024-08-09T08:21:13Z</time>
      </trkpt>
      <trkpt lat="50.14417" lon="5.16202">
        <ele>184.4</ele>
        <time>2024-08-09T08:21:15Z</time>
      </trkpt>
      <trkpt lat="50.14424" lon="5.16205">
        <ele>184.2</ele>
        <time>2024-08-09T08:21:17Z</time>
      </trkpt>
      <trkpt lat="50.14434" lon="5.16203">
        <ele>183.4</ele>
        <time>2024-08-09T08:21:20Z</time>
      </trkpt>
      <trkpt lat="50.14448" lon="5.162">
        <ele>183</ele>
        <time>2024-08-09T08:21:22Z</time>
      </trkpt>
      <trkpt lat="50.14479" lon="5.16198">
        <ele>182.6</ele>
        <time>2024-08-09T08:21:27Z</time>
      </trkpt>
      <trkpt lat="50.14525" lon="5.16201">
        <ele>182.2</ele>
        <time>2024-08-09T08:21:33Z</time>
      </trkpt>
      <trkpt lat="50.14534" lon="5.16203">
        <ele>182</ele>
        <time>2024-08-09T08:21:34Z</time>
      </trkpt>
      <trkpt lat="50.14558" lon="5.16219">
        <ele>181.4</ele>
        <time>2024-08-09T08:21:37Z</time>
      </trkpt>
      <trkpt lat="50.14562" lon="5.16224">
        <ele>181.2</ele>
        <time>2024-08-09T08:21:38Z</time>
      </trkpt>
      <trkpt lat="50.14566" lon="5.16228">
        <ele>181</ele>
        <time>2024-08-09T08:21:39Z</time>
      </trkpt>
      <trkpt lat="50.146" lon="5.16264">
        <ele>179.8</ele>
        <time>2024-08-09T08:21:43Z</time>
      </trkpt>
      <trkpt lat="50.14628" lon="5.16289">
        <ele>178.4</ele>
        <time>2024-08-09T08:21:47Z</time>
      </trkpt>
      <trkpt lat="50.14656" lon="5.16313">
        <ele>177.4</ele>
        <time>2024-08-09T08:21:51Z</time>
      </trkpt>
      <trkpt lat="50.1467" lon="5.16325">
        <ele>177</ele>
        <time>2024-08-09T08:21:53Z</time>
      </trkpt>
      <trkpt lat="50.14699" lon="5.16344">
        <ele>176.4</ele>
        <time>2024-08-09T08:21:57Z</time>
      </trkpt>
      <trkpt lat="50.1472" lon="5.16357">
        <ele>176</ele>
        <time>2024-08-09T08:22:00Z</time>
      </trkpt>
      <trkpt lat="50.1477" lon="5.16385">
        <ele>175.6</ele>
        <time>2024-08-09T08:22:07Z</time>
      </trkpt>
      <trkpt lat="50.14824" lon="5.16424">
        <ele>175.8</ele>
        <time>2024-08-09T08:22:15Z</time>
      </trkpt>
      <trkpt lat="50.14831" lon="5.16429">
        <ele>175.8</ele>
        <time>2024-08-09T08:22:16Z</time>
      </trkpt>
      <trkpt lat="50.14862" lon="5.16459">
        <ele>176</ele>
        <time>2024-08-09T08:22:21Z</time>
      </trkpt>
      <trkpt lat="50.14892" lon="5.1651">
        <ele>175.8</ele>
        <time>2024-08-09T08:22:27Z</time>
      </trkpt>
      <trkpt lat="50.14929" lon="5.16564">
        <ele>176</ele>
        <time>2024-08-09T08:22:34Z</time>
      </trkpt>
      <trkpt lat="50.14959" lon="5.16607">
        <ele>176</ele>
        <time>2024-08-09T08:22:40Z</time>
      </trkpt>
      <trkpt lat="50.14988" lon="5.16655">
        <ele>176.2</ele>
        <time>2024-08-09T08:22:46Z</time>
      </trkpt>
      <trkpt lat="50.15018" lon="5.16716">
        <ele>176.2</ele>
        <time>2024-08-09T08:22:53Z</time>
      </trkpt>
      <trkpt lat="50.15042" lon="5.16793">
        <ele>176.4</ele>
        <time>2024-08-09T08:23:01Z</time>
      </trkpt>
      <trkpt lat="50.15061" lon="5.16873">
        <ele>176.6</ele>
        <time>2024-08-09T08:23:09Z</time>
      </trkpt>
      <trkpt lat="50.15065" lon="5.16894">
        <ele>176.8</ele>
        <time>2024-08-09T08:23:11Z</time>
      </trkpt>
      <trkpt lat="50.15081" lon="5.16977">
        <ele>177</ele>
        <time>2024-08-09T08:23:19Z</time>
      </trkpt>
      <trkpt lat="50.15088" lon="5.17008">
        <ele>177</ele>
        <time>2024-08-09T08:23:22Z</time>
      </trkpt>
      <trkpt lat="50.15106" lon="5.17092">
        <ele>177.2</ele>
        <time>2024-08-09T08:23:30Z</time>
      </trkpt>
      <trkpt lat="50.15108" lon="5.17102">
        <ele>177.2</ele>
        <time>2024-08-09T08:23:31Z</time>
      </trkpt>
      <trkpt lat="50.15125" lon="5.17186">
        <ele>177.2</ele>
        <time>2024-08-09T08:23:39Z</time>
      </trkpt>
      <trkpt lat="50.15128" lon="5.17208">
        <ele>177.4</ele>
        <time>2024-08-09T08:23:41Z</time>
      </trkpt>
      <trkpt lat="50.15128" lon="5.17251">
        <ele>177.4</ele>
        <time>2024-08-09T08:23:45Z</time>
      </trkpt>
      <trkpt lat="50.15126" lon="5.17273">
        <ele>177.4</ele>
        <time>2024-08-09T08:23:47Z</time>
      </trkpt>
      <trkpt lat="50.15121" lon="5.17294">
        <ele>177.4</ele>
        <time>2024-08-09T08:23:49Z</time>
      </trkpt>
      <trkpt lat="50.15116" lon="5.17314">
        <ele>177.4</ele>
        <time>2024-08-09T08:23:51Z</time>
      </trkpt>
      <trkpt lat="50.15109" lon="5.17333">
        <ele>177.6</ele>
        <time>2024-08-09T08:23:53Z</time>
      </trkpt>
      <trkpt lat="50.15093" lon="5.17367">
        <ele>177.8</ele>
        <time>2024-08-09T08:23:57Z</time>
      </trkpt>
      <trkpt lat="50.15084" lon="5.17382">
        <ele>178</ele>
        <time>2024-08-09T08:23:59Z</time>
      </trkpt>
      <trkpt lat="50.1504" lon="5.1746">
        <ele>178.2</ele>
        <time>2024-08-09T08:24:09Z</time>
      </trkpt>
      <trkpt lat="50.15002" lon="5.17526">
        <ele>178.2</ele>
        <time>2024-08-09T08:24:18Z</time>
      </trkpt>
      <trkpt lat="50.14998" lon="5.17532">
        <ele>178.2</ele>
        <time>2024-08-09T08:24:20Z</time>
      </trkpt>
      <trkpt lat="50.14963" lon="5.17581">
        <ele>178.4</ele>
        <time>2024-08-09T08:24:27Z</time>
      </trkpt>
      <trkpt lat="50.14958" lon="5.17586">
        <ele>178.6</ele>
        <time>2024-08-09T08:24:28Z</time>
      </trkpt>
      <trkpt lat="50.14938" lon="5.1761">
        <ele>179</ele>
        <time>2024-08-09T08:24:33Z</time>
      </trkpt>
      <trkpt lat="50.14934" lon="5.17615">
        <ele>179.2</ele>
        <time>2024-08-09T08:24:34Z</time>
      </trkpt>
      <trkpt lat="50.14928" lon="5.17625">
        <ele>179.4</ele>
        <time>2024-08-09T08:24:36Z</time>
      </trkpt>
      <trkpt lat="50.14918" lon="5.1765">
        <ele>180</ele>
        <time>2024-08-09T08:24:40Z</time>
      </trkpt>
      <trkpt lat="50.14911" lon="5.1767">
        <ele>180.8</ele>
        <time>2024-08-09T08:24:43Z</time>
      </trkpt>
      <trkpt lat="50.14908" lon="5.17693">
        <ele>181.2</ele>
        <time>2024-08-09T08:24:46Z</time>
      </trkpt>
      <trkpt lat="50.14907" lon="5.17716">
        <ele>181.8</ele>
        <time>2024-08-09T08:24:49Z</time>
      </trkpt>
      <trkpt lat="50.14909" lon="5.17732">
        <ele>182.2</ele>
        <time>2024-08-09T08:24:51Z</time>
      </trkpt>
      <trkpt lat="50.1491" lon="5.17741">
        <ele>182.4</ele>
        <time>2024-08-09T08:24:52Z</time>
      </trkpt>
      <trkpt lat="50.14916" lon="5.17764">
        <ele>182.8</ele>
        <time>2024-08-09T08:24:55Z</time>
      </trkpt>
      <trkpt lat="50.14921" lon="5.17778">
        <ele>183</ele>
        <time>2024-08-09T08:24:57Z</time>
      </trkpt>
      <trkpt lat="50.14936" lon="5.17819">
        <ele>184.2</ele>
        <time>2024-08-09T08:25:03Z</time>
      </trkpt>
      <trkpt lat="50.14939" lon="5.17825">
        <ele>184.4</ele>
        <time>2024-08-09T08:25:04Z</time>
      </trkpt>
      <trkpt lat="50.14946" lon="5.17843">
        <ele>185.6</ele>
        <time>2024-08-09T08:25:08Z</time>
      </trkpt>
      <trkpt lat="50.14958" lon="5.17877">
        <ele>186.8</ele>
        <time>2024-08-09T08:25:14Z</time>
      </trkpt>
      <trkpt lat="50.14968" lon="5.17908">
        <ele>187.8</ele>
        <time>2024-08-09T08:25:18Z</time>
      </trkpt>
      <trkpt lat="50.14979" lon="5.1794">
        <ele>189</ele>
        <time>2024-08-09T08:25:23Z</time>
      </trkpt>
      <trkpt lat="50.14987" lon="5.17964">
        <ele>190</ele>
        <time>2024-08-09T08:25:27Z</time>
      </trkpt>
      <trkpt lat="50.14995" lon="5.17986">
        <ele>191.2</ele>
        <time>2024-08-09T08:25:31Z</time>
      </trkpt>
      <trkpt lat="50.14999" lon="5.17997">
        <ele>191.6</ele>
        <time>2024-08-09T08:25:33Z</time>
      </trkpt>
      <trkpt lat="50.15005" lon="5.18014">
        <ele>192.2</ele>
        <time>2024-08-09T08:25:36Z</time>
      </trkpt>
      <trkpt lat="50.15013" lon="5.18037">
        <ele>193</ele>
        <time>2024-08-09T08:25:40Z</time>
      </trkpt>
      <trkpt lat="50.15017" lon="5.18049">
        <ele>193.4</ele>
        <time>2024-08-09T08:25:42Z</time>
      </trkpt>
      <trkpt lat="50.15028" lon="5.18076">
        <ele>194.4</ele>
        <time>2024-08-09T08:25:47Z</time>
      </trkpt>
      <trkpt lat="50.15033" lon="5.18087">
        <ele>194.8</ele>
        <time>2024-08-09T08:25:49Z</time>
      </trkpt>
      <trkpt lat="50.15043" lon="5.18109">
        <ele>195.6</ele>
        <time>2024-08-09T08:25:53Z</time>
      </trkpt>
      <trkpt lat="50.15054" lon="5.18132">
        <ele>196.2</ele>
        <time>2024-08-09T08:25:57Z</time>
      </trkpt>
      <trkpt lat="50.15066" lon="5.18155">
        <ele>196.6</ele>
        <time>2024-08-09T08:26:01Z</time>
      </trkpt>
      <trkpt lat="50.15082" lon="5.18185">
        <ele>197.2</ele>
        <time>2024-08-09T08:26:06Z</time>
      </trkpt>
      <trkpt lat="50.1509" lon="5.18203">
        <ele>197.6</ele>
        <time>2024-08-09T08:26:09Z</time>
      </trkpt>
      <trkpt lat="50.15114" lon="5.18252">
        <ele>198.4</ele>
        <time>2024-08-09T08:26:17Z</time>
      </trkpt>
      <trkpt lat="50.1513" lon="5.18282">
        <ele>199</ele>
        <time>2024-08-09T08:26:22Z</time>
      </trkpt>
      <trkpt lat="50.15139" lon="5.18301">
        <ele>199.2</ele>
        <time>2024-08-09T08:26:26Z</time>
      </trkpt>
      <trkpt lat="50.15175" lon="5.1837">
        <ele>199.6</ele>
        <time>2024-08-09T08:26:37Z</time>
      </trkpt>
      <trkpt lat="50.15197" lon="5.18405">
        <ele>200</ele>
        <time>2024-08-09T08:26:42Z</time>
      </trkpt>
      <trkpt lat="50.15219" lon="5.18431">
        <ele>200.2</ele>
        <time>2024-08-09T08:26:47Z</time>
      </trkpt>
      <trkpt lat="50.15257" lon="5.18473">
        <ele>199.8</ele>
        <time>2024-08-09T08:26:56Z</time>
      </trkpt>
      <trkpt lat="50.15302" lon="5.18525">
        <ele>199.6</ele>
        <time>2024-08-09T08:27:04Z</time>
      </trkpt>
      <trkpt lat="50.15307" lon="5.18531">
        <ele>199.6</ele>
        <time>2024-08-09T08:27:05Z</time>
      </trkpt>
      <trkpt lat="50.15331" lon="5.18577">
        <ele>199.4</ele>
        <time>2024-08-09T08:27:11Z</time>
      </trkpt>
      <trkpt lat="50.15356" lon="5.18645">
        <ele>199.6</ele>
        <time>2024-08-09T08:27:20Z</time>
      </trkpt>
      <trkpt lat="50.15368" lon="5.18695">
        <ele>199.8</ele>
        <time>2024-08-09T08:27:26Z</time>
      </trkpt>
      <trkpt lat="50.15376" lon="5.18767">
        <ele>200.6</ele>
        <time>2024-08-09T08:27:34Z</time>
      </trkpt>
      <trkpt lat="50.15377" lon="5.1879">
        <ele>201</ele>
        <time>2024-08-09T08:27:37Z</time>
      </trkpt>
      <trkpt lat="50.15378" lon="5.18826">
        <ele>201.8</ele>
        <time>2024-08-09T08:27:42Z</time>
      </trkpt>
      <trkpt lat="50.15379" lon="5.18833">
        <ele>202</ele>
        <time>2024-08-09T08:27:43Z</time>
      </trkpt>
      <trkpt lat="50.15379" lon="5.18833">
        <ele>202.2</ele>
        <time>2024-08-09T08:27:44Z</time>
      </trkpt>
      <trkpt lat="50.15388" lon="5.18883">
        <ele>203.2</ele>
        <time>2024-08-09T08:27:51Z</time>
      </trkpt>
      <trkpt lat="50.1539" lon="5.18889">
        <ele>203.4</ele>
        <time>2024-08-09T08:27:52Z</time>
      </trkpt>
      <trkpt lat="50.15397" lon="5.18921">
        <ele>203.8</ele>
        <time>2024-08-09T08:27:57Z</time>
      </trkpt>
      <trkpt lat="50.15401" lon="5.18934">
        <ele>204</ele>
        <time>2024-08-09T08:27:59Z</time>
      </trkpt>
      <trkpt lat="50.15404" lon="5.18947">
        <ele>204.6</ele>
        <time>2024-08-09T08:28:01Z</time>
      </trkpt>
      <trkpt lat="50.15416" lon="5.18988">
        <ele>205.6</ele>
        <time>2024-08-09T08:28:08Z</time>
      </trkpt>
      <trkpt lat="50.15423" lon="5.19009">
        <ele>206</ele>
        <time>2024-08-09T08:28:10Z</time>
      </trkpt>
      <trkpt lat="50.15434" lon="5.19044">
        <ele>207</ele>
        <time>2024-08-09T08:28:15Z</time>
      </trkpt>
      <trkpt lat="50.15441" lon="5.19066">
        <ele>207.4</ele>
        <time>2024-08-09T08:28:18Z</time>
      </trkpt>
      <trkpt lat="50.15465" lon="5.19145">
        <ele>208</ele>
        <time>2024-08-09T08:28:28Z</time>
      </trkpt>
      <trkpt lat="50.15467" lon="5.19153">
        <ele>208</ele>
        <time>2024-08-09T08:28:29Z</time>
      </trkpt>
      <trkpt lat="50.15487" lon="5.19216">
        <ele>209</ele>
        <time>2024-08-09T08:28:37Z</time>
      </trkpt>
      <trkpt lat="50.15511" lon="5.19292">
        <ele>209.4</ele>
        <time>2024-08-09T08:28:46Z</time>
      </trkpt>
      <trkpt lat="50.15534" lon="5.1937">
        <ele>209.6</ele>
        <time>2024-08-09T08:28:55Z</time>
      </trkpt>
      <trkpt lat="50.15559" lon="5.19448">
        <ele>209.4</ele>
        <time>2024-08-09T08:29:04Z</time>
      </trkpt>
      <trkpt lat="50.15581" lon="5.1952">
        <ele>209.4</ele>
        <time>2024-08-09T08:29:12Z</time>
      </trkpt>
      <trkpt lat="50.15609" lon="5.19604">
        <ele>209</ele>
        <time>2024-08-09T08:29:21Z</time>
      </trkpt>
      <trkpt lat="50.15614" lon="5.19622">
        <ele>209</ele>
        <time>2024-08-09T08:29:23Z</time>
      </trkpt>
      <trkpt lat="50.15637" lon="5.19681">
        <ele>209</ele>
        <time>2024-08-09T08:29:30Z</time>
      </trkpt>
      <trkpt lat="50.15655" lon="5.19742">
        <ele>209.8</ele>
        <time>2024-08-09T08:29:38Z</time>
      </trkpt>
      <trkpt lat="50.15663" lon="5.19779">
        <ele>210.2</ele>
        <time>2024-08-09T08:29:41Z</time>
      </trkpt>
      <trkpt lat="50.15671" lon="5.19823">
        <ele>210.6</ele>
        <time>2024-08-09T08:29:46Z</time>
      </trkpt>
      <trkpt lat="50.15677" lon="5.19864">
        <ele>211.2</ele>
        <time>2024-08-09T08:29:51Z</time>
      </trkpt>
      <trkpt lat="50.15681" lon="5.19889">
        <ele>212.2</ele>
        <time>2024-08-09T08:29:54Z</time>
      </trkpt>
      <trkpt lat="50.15683" lon="5.19898">
        <ele>212.4</ele>
        <time>2024-08-09T08:29:55Z</time>
      </trkpt>
      <trkpt lat="50.15696" lon="5.19961">
        <ele>213.2</ele>
        <time>2024-08-09T08:30:03Z</time>
      </trkpt>
      <trkpt lat="50.157" lon="5.19976">
        <ele>213.6</ele>
        <time>2024-08-09T08:30:05Z</time>
      </trkpt>
      <trkpt lat="50.15715" lon="5.20026">
        <ele>214.6</ele>
        <time>2024-08-09T08:30:12Z</time>
      </trkpt>
      <trkpt lat="50.15728" lon="5.20073">
        <ele>215.6</ele>
        <time>2024-08-09T08:30:20Z</time>
      </trkpt>
      <trkpt lat="50.15738" lon="5.20107">
        <ele>216</ele>
        <time>2024-08-09T08:30:24Z</time>
      </trkpt>
      <trkpt lat="50.15752" lon="5.20156">
        <ele>216.8</ele>
        <time>2024-08-09T08:30:31Z</time>
      </trkpt>
      <trkpt lat="50.15757" lon="5.20177">
        <ele>217.2</ele>
        <time>2024-08-09T08:30:34Z</time>
      </trkpt>
      <trkpt lat="50.1577" lon="5.20235">
        <ele>217.6</ele>
        <time>2024-08-09T08:30:41Z</time>
      </trkpt>
      <trkpt lat="50.15784" lon="5.20309">
        <ele>217.4</ele>
        <time>2024-08-09T08:30:48Z</time>
      </trkpt>
      <trkpt lat="50.15801" lon="5.20391">
        <ele>216.4</ele>
        <time>2024-08-09T08:30:55Z</time>
      </trkpt>
      <trkpt lat="50.15809" lon="5.20427">
        <ele>215.8</ele>
        <time>2024-08-09T08:30:58Z</time>
      </trkpt>
      <trkpt lat="50.15812" lon="5.20439">
        <ele>215.4</ele>
        <time>2024-08-09T08:30:59Z</time>
      </trkpt>
      <trkpt lat="50.1582" lon="5.20462">
        <ele>214.4</ele>
        <time>2024-08-09T08:31:02Z</time>
      </trkpt>
      <trkpt lat="50.15833" lon="5.20495">
        <ele>213.8</ele>
        <time>2024-08-09T08:31:04Z</time>
      </trkpt>
      <trkpt lat="50.15843" lon="5.20516">
        <ele>213</ele>
        <time>2024-08-09T08:31:06Z</time>
      </trkpt>
      <trkpt lat="50.15858" lon="5.20543">
        <ele>212.4</ele>
        <time>2024-08-09T08:31:09Z</time>
      </trkpt>
      <trkpt lat="50.15868" lon="5.20557">
        <ele>211.8</ele>
        <time>2024-08-09T08:31:11Z</time>
      </trkpt>
      <trkpt lat="50.15878" lon="5.20569">
        <ele>210.8</ele>
        <time>2024-08-09T08:31:14Z</time>
      </trkpt>
      <trkpt lat="50.15887" lon="5.20579">
        <ele>210.4</ele>
        <time>2024-08-09T08:31:15Z</time>
      </trkpt>
      <trkpt lat="50.15894" lon="5.20588">
        <ele>209.4</ele>
        <time>2024-08-09T08:31:17Z</time>
      </trkpt>
      <trkpt lat="50.15899" lon="5.20594">
        <ele>208.2</ele>
        <time>2024-08-09T08:31:20Z</time>
      </trkpt>
      <trkpt lat="50.15905" lon="5.20597">
        <ele>207.2</ele>
        <time>2024-08-09T08:31:24Z</time>
      </trkpt>
      <trkpt lat="50.15905" lon="5.20597">
        <ele>207</ele>
        <time>2024-08-09T08:31:25Z</time>
      </trkpt>
      <trkpt lat="50.15906" lon="5.20595">
        <ele>206.2</ele>
        <time>2024-08-09T08:32:38Z</time>
      </trkpt>
      <trkpt lat="50.1591" lon="5.20594">
        <ele>206.2</ele>
        <time>2024-08-09T08:32:40Z</time>
      </trkpt>
      <trkpt lat="50.15924" lon="5.20596">
        <ele>206.2</ele>
        <time>2024-08-09T08:32:44Z</time>
      </trkpt>
      <trkpt lat="50.15955" lon="5.206">
        <ele>206</ele>
        <time>2024-08-09T08:32:50Z</time>
      </trkpt>
      <trkpt lat="50.15966" lon="5.20603">
        <ele>206</ele>
        <time>2024-08-09T08:32:51Z</time>
      </trkpt>
      <trkpt lat="50.15976" lon="5.20616">
        <ele>205.8</ele>
        <time>2024-08-09T08:32:53Z</time>
      </trkpt>
      <trkpt lat="50.1598" lon="5.20625">
        <ele>205.8</ele>
        <time>2024-08-09T08:32:54Z</time>
      </trkpt>
      <trkpt lat="50.15982" lon="5.20634">
        <ele>205.6</ele>
        <time>2024-08-09T08:32:55Z</time>
      </trkpt>
      <trkpt lat="50.15984" lon="5.20655">
        <ele>205.4</ele>
        <time>2024-08-09T08:32:57Z</time>
      </trkpt>
      <trkpt lat="50.15989" lon="5.2069">
        <ele>204.8</ele>
        <time>2024-08-09T08:33:00Z</time>
      </trkpt>
      <trkpt lat="50.15998" lon="5.20728">
        <ele>203.6</ele>
        <time>2024-08-09T08:33:03Z</time>
      </trkpt>
      <trkpt lat="50.16008" lon="5.20754">
        <ele>203</ele>
        <time>2024-08-09T08:33:05Z</time>
      </trkpt>
      <trkpt lat="50.16013" lon="5.20766">
        <ele>202.6</ele>
        <time>2024-08-09T08:33:06Z</time>
      </trkpt>
      <trkpt lat="50.16033" lon="5.208">
        <ele>201.2</ele>
        <time>2024-08-09T08:33:09Z</time>
      </trkpt>
      <trkpt lat="50.1604" lon="5.2081">
        <ele>200.6</ele>
        <time>2024-08-09T08:33:10Z</time>
      </trkpt>
      <trkpt lat="50.16055" lon="5.20829">
        <ele>199.8</ele>
        <time>2024-08-09T08:33:12Z</time>
      </trkpt>
      <trkpt lat="50.16078" lon="5.20853">
        <ele>198.8</ele>
        <time>2024-08-09T08:33:15Z</time>
      </trkpt>
      <trkpt lat="50.16107" lon="5.20885">
        <ele>197.8</ele>
        <time>2024-08-09T08:33:19Z</time>
      </trkpt>
      <trkpt lat="50.16121" lon="5.20899">
        <ele>197.4</ele>
        <time>2024-08-09T08:33:21Z</time>
      </trkpt>
      <trkpt lat="50.16165" lon="5.20947">
        <ele>196.8</ele>
        <time>2024-08-09T08:33:28Z</time>
      </trkpt>
      <trkpt lat="50.16178" lon="5.2096">
        <ele>196.6</ele>
        <time>2024-08-09T08:33:30Z</time>
      </trkpt>
      <trkpt lat="50.16194" lon="5.20982">
        <ele>196.4</ele>
        <time>2024-08-09T08:33:33Z</time>
      </trkpt>
      <trkpt lat="50.16202" lon="5.21001">
        <ele>196.4</ele>
        <time>2024-08-09T08:33:35Z</time>
      </trkpt>
      <trkpt lat="50.16208" lon="5.21022">
        <ele>196.4</ele>
        <time>2024-08-09T08:33:38Z</time>
      </trkpt>
      <trkpt lat="50.1621" lon="5.21044">
        <ele>196.4</ele>
        <time>2024-08-09T08:33:39Z</time>
      </trkpt>
      <trkpt lat="50.16206" lon="5.21088">
        <ele>196.4</ele>
        <time>2024-08-09T08:33:43Z</time>
      </trkpt>
      <trkpt lat="50.16206" lon="5.21088">
        <ele>196.4</ele>
        <time>2024-08-09T08:33:44Z</time>
      </trkpt>
      <trkpt lat="50.16186" lon="5.2118">
        <ele>196.4</ele>
        <time>2024-08-09T08:33:51Z</time>
      </trkpt>
      <trkpt lat="50.16183" lon="5.21191">
        <ele>196.4</ele>
        <time>2024-08-09T08:33:52Z</time>
      </trkpt>
      <trkpt lat="50.1617" lon="5.21265">
        <ele>196.4</ele>
        <time>2024-08-09T08:33:59Z</time>
      </trkpt>
      <trkpt lat="50.1617" lon="5.21308">
        <ele>196.4</ele>
        <time>2024-08-09T08:34:03Z</time>
      </trkpt>
      <trkpt lat="50.16172" lon="5.21317">
        <ele>196.4</ele>
        <time>2024-08-09T08:34:04Z</time>
      </trkpt>
      <trkpt lat="50.16184" lon="5.21356">
        <ele>196.8</ele>
        <time>2024-08-09T08:34:09Z</time>
      </trkpt>
      <trkpt lat="50.16188" lon="5.21368">
        <ele>196.8</ele>
        <time>2024-08-09T08:34:11Z</time>
      </trkpt>
      <trkpt lat="50.16191" lon="5.21381">
        <ele>197.2</ele>
        <time>2024-08-09T08:34:14Z</time>
      </trkpt>
      <trkpt lat="50.16189" lon="5.21393">
        <ele>197.6</ele>
        <time>2024-08-09T08:34:15Z</time>
      </trkpt>
      <trkpt lat="50.16188" lon="5.21399">
        <ele>197.8</ele>
        <time>2024-08-09T08:34:16Z</time>
      </trkpt>
      <trkpt lat="50.16184" lon="5.21413">
        <ele>198.6</ele>
        <time>2024-08-09T08:34:18Z</time>
      </trkpt>
      <trkpt lat="50.16181" lon="5.2142">
        <ele>199</ele>
        <time>2024-08-09T08:34:19Z</time>
      </trkpt>
      <trkpt lat="50.16172" lon="5.21449">
        <ele>200.2</ele>
        <time>2024-08-09T08:34:23Z</time>
      </trkpt>
      <trkpt lat="50.16167" lon="5.21463">
        <ele>200.6</ele>
        <time>2024-08-09T08:34:25Z</time>
      </trkpt>
      <trkpt lat="50.16158" lon="5.21492">
        <ele>201.4</ele>
        <time>2024-08-09T08:34:29Z</time>
      </trkpt>
      <trkpt lat="50.16156" lon="5.21498">
        <ele>201.8</ele>
        <time>2024-08-09T08:34:30Z</time>
      </trkpt>
      <trkpt lat="50.16149" lon="5.21519">
        <ele>202.4</ele>
        <time>2024-08-09T08:34:33Z</time>
      </trkpt>
      <trkpt lat="50.16147" lon="5.21527">
        <ele>202.6</ele>
        <time>2024-08-09T08:34:34Z</time>
      </trkpt>
      <trkpt lat="50.16142" lon="5.21552">
        <ele>203</ele>
        <time>2024-08-09T08:34:38Z</time>
      </trkpt>
      <trkpt lat="50.16129" lon="5.21625">
        <ele>203</ele>
        <time>2024-08-09T08:34:45Z</time>
      </trkpt>
      <trkpt lat="50.16135" lon="5.21657">
        <ele>202.6</ele>
        <time>2024-08-09T08:34:48Z</time>
      </trkpt>
      <trkpt lat="50.16139" lon="5.21667">
        <ele>202.4</ele>
        <time>2024-08-09T08:34:50Z</time>
      </trkpt>
      <trkpt lat="50.16147" lon="5.2168">
        <ele>202.2</ele>
        <time>2024-08-09T08:34:51Z</time>
      </trkpt>
      <trkpt lat="50.16155" lon="5.21694">
        <ele>202</ele>
        <time>2024-08-09T08:34:52Z</time>
      </trkpt>
      <trkpt lat="50.16174" lon="5.21721">
        <ele>201.6</ele>
        <time>2024-08-09T08:34:55Z</time>
      </trkpt>
      <trkpt lat="50.16188" lon="5.21734">
        <ele>201.2</ele>
        <time>2024-08-09T08:34:57Z</time>
      </trkpt>
      <trkpt lat="50.16202" lon="5.21745">
        <ele>199.6</ele>
        <time>2024-08-09T08:34:59Z</time>
      </trkpt>
      <trkpt lat="50.16216" lon="5.21755">
        <ele>198.2</ele>
        <time>2024-08-09T08:35:02Z</time>
      </trkpt>
      <trkpt lat="50.16229" lon="5.21764">
        <ele>197.8</ele>
        <time>2024-08-09T08:35:03Z</time>
      </trkpt>
      <trkpt lat="50.16239" lon="5.21774">
        <ele>197.2</ele>
        <time>2024-08-09T08:35:05Z</time>
      </trkpt>
      <trkpt lat="50.16246" lon="5.2179">
        <ele>197</ele>
        <time>2024-08-09T08:35:07Z</time>
      </trkpt>
      <trkpt lat="50.16249" lon="5.21811">
        <ele>197</ele>
        <time>2024-08-09T08:35:09Z</time>
      </trkpt>
      <trkpt lat="50.16249" lon="5.21822">
        <ele>196.8</ele>
        <time>2024-08-09T08:35:10Z</time>
      </trkpt>
      <trkpt lat="50.16244" lon="5.21875">
        <ele>196.6</ele>
        <time>2024-08-09T08:35:15Z</time>
      </trkpt>
      <trkpt lat="50.16244" lon="5.21885">
        <ele>196.4</ele>
        <time>2024-08-09T08:35:16Z</time>
      </trkpt>
      <trkpt lat="50.16247" lon="5.21911">
        <ele>196.2</ele>
        <time>2024-08-09T08:35:20Z</time>
      </trkpt>
      <trkpt lat="50.1625" lon="5.21923">
        <ele>196.2</ele>
        <time>2024-08-09T08:35:21Z</time>
      </trkpt>
      <trkpt lat="50.16252" lon="5.21938">
        <ele>196</ele>
        <time>2024-08-09T08:35:24Z</time>
      </trkpt>
      <trkpt lat="50.16251" lon="5.21942">
        <ele>196</ele>
        <time>2024-08-09T08:35:25Z</time>
      </trkpt>
      <trkpt lat="50.1625" lon="5.21944">
        <ele>196</ele>
        <time>2024-08-09T08:35:26Z</time>
      </trkpt>
      <trkpt lat="50.16248" lon="5.21947">
        <ele>196</ele>
        <time>2024-08-09T08:35:27Z</time>
      </trkpt>
      <trkpt lat="50.16242" lon="5.2195">
        <ele>196.2</ele>
        <time>2024-08-09T08:35:29Z</time>
      </trkpt>
      <trkpt lat="50.16227" lon="5.21957">
        <ele>197.2</ele>
        <time>2024-08-09T08:35:33Z</time>
      </trkpt>
      <trkpt lat="50.16212" lon="5.21966">
        <ele>197.8</ele>
        <time>2024-08-09T08:35:37Z</time>
      </trkpt>
      <trkpt lat="50.16208" lon="5.21965">
        <ele>198</ele>
        <time>2024-08-09T08:35:38Z</time>
      </trkpt>
      <trkpt lat="50.16205" lon="5.21965">
        <ele>198</ele>
        <time>2024-08-09T08:35:39Z</time>
      </trkpt>
      <trkpt lat="50.16198" lon="5.21956">
        <ele>198</ele>
        <time>2024-08-09T08:35:41Z</time>
      </trkpt>
      <trkpt lat="50.16189" lon="5.21945">
        <ele>198</ele>
        <time>2024-08-09T08:35:43Z</time>
      </trkpt>
      <trkpt lat="50.16175" lon="5.21928">
        <ele>198</ele>
        <time>2024-08-09T08:35:46Z</time>
      </trkpt>
      <trkpt lat="50.16148" lon="5.21908">
        <ele>196.8</ele>
        <time>2024-08-09T08:35:51Z</time>
      </trkpt>
      <trkpt lat="50.16142" lon="5.21906">
        <ele>196.6</ele>
        <time>2024-08-09T08:35:52Z</time>
      </trkpt>
      <trkpt lat="50.16124" lon="5.21903">
        <ele>195.8</ele>
        <time>2024-08-09T08:35:55Z</time>
      </trkpt>
      <trkpt lat="50.16121" lon="5.21902">
        <ele>195.8</ele>
        <time>2024-08-09T08:35:56Z</time>
      </trkpt>
      <trkpt lat="50.16119" lon="5.21901">
        <ele>195.8</ele>
        <time>2024-08-09T08:35:57Z</time>
      </trkpt>
      <trkpt lat="50.16078" lon="5.21886">
        <ele>195.2</ele>
        <time>2024-08-09T08:36:04Z</time>
      </trkpt>
      <trkpt lat="50.16039" lon="5.2186">
        <ele>195</ele>
        <time>2024-08-09T08:36:12Z</time>
      </trkpt>
      <trkpt lat="50.16024" lon="5.21857">
        <ele>195</ele>
        <time>2024-08-09T08:36:15Z</time>
      </trkpt>
      <trkpt lat="50.16019" lon="5.2186">
        <ele>195</ele>
        <time>2024-08-09T08:36:16Z</time>
      </trkpt>
      <trkpt lat="50.16008" lon="5.21875">
        <ele>195</ele>
        <time>2024-08-09T08:36:20Z</time>
      </trkpt>
      <trkpt lat="50.16002" lon="5.21887">
        <ele>195</ele>
        <time>2024-08-09T08:36:21Z</time>
      </trkpt>
      <trkpt lat="50.1599" lon="5.21905">
        <ele>195.2</ele>
        <time>2024-08-09T08:36:25Z</time>
      </trkpt>
      <trkpt lat="50.15979" lon="5.21932">
        <ele>195.2</ele>
        <time>2024-08-09T08:36:30Z</time>
      </trkpt>
      <trkpt lat="50.15968" lon="5.21957">
        <ele>195.8</ele>
        <time>2024-08-09T08:36:35Z</time>
      </trkpt>
      <trkpt lat="50.15956" lon="5.21984">
        <ele>196.4</ele>
        <time>2024-08-09T08:36:40Z</time>
      </trkpt>
      <trkpt lat="50.15945" lon="5.22011">
        <ele>197</ele>
        <time>2024-08-09T08:36:45Z</time>
      </trkpt>
      <trkpt lat="50.15932" lon="5.22036">
        <ele>197.2</ele>
        <time>2024-08-09T08:36:49Z</time>
      </trkpt>
      <trkpt lat="50.15932" lon="5.22036">
        <ele>197.6</ele>
        <time>2024-08-09T08:36:50Z</time>
      </trkpt>
      <trkpt lat="50.15921" lon="5.22062">
        <ele>198</ele>
        <time>2024-08-09T08:36:53Z</time>
      </trkpt>
      <trkpt lat="50.15909" lon="5.22086">
        <ele>198.4</ele>
        <time>2024-08-09T08:36:57Z</time>
      </trkpt>
      <trkpt lat="50.15888" lon="5.22104">
        <ele>198.8</ele>
        <time>2024-08-09T08:37:01Z</time>
      </trkpt>
      <trkpt lat="50.15884" lon="5.22109">
        <ele>199</ele>
        <time>2024-08-09T08:37:02Z</time>
      </trkpt>
      <trkpt lat="50.1588" lon="5.22114">
        <ele>199</ele>
        <time>2024-08-09T08:37:03Z</time>
      </trkpt>
      <trkpt lat="50.15875" lon="5.22129">
        <ele>199.2</ele>
        <time>2024-08-09T08:37:05Z</time>
      </trkpt>
      <trkpt lat="50.15873" lon="5.22144">
        <ele>199.6</ele>
        <time>2024-08-09T08:37:08Z</time>
      </trkpt>
      <trkpt lat="50.15871" lon="5.22176">
        <ele>200</ele>
        <time>2024-08-09T08:37:11Z</time>
      </trkpt>
      <trkpt lat="50.1587" lon="5.22185">
        <ele>200.2</ele>
        <time>2024-08-09T08:37:12Z</time>
      </trkpt>
      <trkpt lat="50.15865" lon="5.22252">
        <ele>200.4</ele>
        <time>2024-08-09T08:37:19Z</time>
      </trkpt>
      <trkpt lat="50.1586" lon="5.2231">
        <ele>200</ele>
        <time>2024-08-09T08:37:26Z</time>
      </trkpt>
      <trkpt lat="50.1586" lon="5.2237">
        <ele>199.8</ele>
        <time>2024-08-09T08:37:33Z</time>
      </trkpt>
      <trkpt lat="50.15852" lon="5.22413">
        <ele>199.8</ele>
        <time>2024-08-09T08:37:37Z</time>
      </trkpt>
      <trkpt lat="50.1585" lon="5.22452">
        <ele>199.8</ele>
        <time>2024-08-09T08:37:42Z</time>
      </trkpt>
      <trkpt lat="50.15852" lon="5.22458">
        <ele>199.8</ele>
        <time>2024-08-09T08:37:43Z</time>
      </trkpt>
      <trkpt lat="50.15859" lon="5.22464">
        <ele>199.8</ele>
        <time>2024-08-09T08:37:45Z</time>
      </trkpt>
      <trkpt lat="50.15869" lon="5.22466">
        <ele>199.8</ele>
        <time>2024-08-09T08:37:47Z</time>
      </trkpt>
      <trkpt lat="50.15889" lon="5.22475">
        <ele>199.8</ele>
        <time>2024-08-09T08:37:51Z</time>
      </trkpt>
      <trkpt lat="50.15894" lon="5.2248">
        <ele>199.8</ele>
        <time>2024-08-09T08:37:52Z</time>
      </trkpt>
      <trkpt lat="50.15921" lon="5.22524">
        <ele>199.4</ele>
        <time>2024-08-09T08:37:58Z</time>
      </trkpt>
      <trkpt lat="50.15925" lon="5.22532">
        <ele>199.2</ele>
        <time>2024-08-09T08:37:59Z</time>
      </trkpt>
      <trkpt lat="50.15932" lon="5.22549">
        <ele>198.8</ele>
        <time>2024-08-09T08:38:02Z</time>
      </trkpt>
      <trkpt lat="50.15963" lon="5.22613">
        <ele>198.2</ele>
        <time>2024-08-09T08:38:09Z</time>
      </trkpt>
      <trkpt lat="50.15995" lon="5.22644">
        <ele>198</ele>
        <time>2024-08-09T08:38:15Z</time>
      </trkpt>
      <trkpt lat="50.16" lon="5.22649">
        <ele>197.8</ele>
        <time>2024-08-09T08:38:16Z</time>
      </trkpt>
      <trkpt lat="50.16035" lon="5.2267">
        <ele>197.4</ele>
        <time>2024-08-09T08:38:22Z</time>
      </trkpt>
      <trkpt lat="50.16066" lon="5.22683">
        <ele>197</ele>
        <time>2024-08-09T08:38:27Z</time>
      </trkpt>
      <trkpt lat="50.16072" lon="5.22683">
        <ele>197</ele>
        <time>2024-08-09T08:38:28Z</time>
      </trkpt>
      <trkpt lat="50.16104" lon="5.22679">
        <ele>197</ele>
        <time>2024-08-09T08:38:33Z</time>
      </trkpt>
      <trkpt lat="50.1611" lon="5.22675">
        <ele>196.8</ele>
        <time>2024-08-09T08:38:34Z</time>
      </trkpt>
      <trkpt lat="50.16127" lon="5.22657">
        <ele>196.8</ele>
        <time>2024-08-09T08:38:37Z</time>
      </trkpt>
      <trkpt lat="50.16129" lon="5.22652">
        <ele>196.8</ele>
        <time>2024-08-09T08:38:38Z</time>
      </trkpt>
      <trkpt lat="50.16132" lon="5.22647">
        <ele>196.8</ele>
        <time>2024-08-09T08:38:39Z</time>
      </trkpt>
      <trkpt lat="50.16152" lon="5.22609">
        <ele>196.6</ele>
        <time>2024-08-09T08:38:43Z</time>
      </trkpt>
      <trkpt lat="50.16187" lon="5.22551">
        <ele>196.4</ele>
        <time>2024-08-09T08:38:51Z</time>
      </trkpt>
      <trkpt lat="50.16197" lon="5.22541">
        <ele>196.4</ele>
        <time>2024-08-09T08:38:53Z</time>
      </trkpt>
      <trkpt lat="50.16207" lon="5.22534">
        <ele>196.4</ele>
        <time>2024-08-09T08:38:55Z</time>
      </trkpt>
      <trkpt lat="50.16218" lon="5.2253">
        <ele>196.4</ele>
        <time>2024-08-09T08:38:57Z</time>
      </trkpt>
      <trkpt lat="50.16234" lon="5.22522">
        <ele>196.4</ele>
        <time>2024-08-09T08:39:00Z</time>
      </trkpt>
      <trkpt lat="50.16239" lon="5.22518">
        <ele>196.4</ele>
        <time>2024-08-09T08:39:02Z</time>
      </trkpt>
      <trkpt lat="50.16257" lon="5.22499">
        <ele>196.8</ele>
        <time>2024-08-09T08:39:05Z</time>
      </trkpt>
      <trkpt lat="50.16262" lon="5.22496">
        <ele>197</ele>
        <time>2024-08-09T08:39:06Z</time>
      </trkpt>
      <trkpt lat="50.16277" lon="5.22484">
        <ele>197</ele>
        <time>2024-08-09T08:39:09Z</time>
      </trkpt>
      <trkpt lat="50.16286" lon="5.22477">
        <ele>197</ele>
        <time>2024-08-09T08:39:11Z</time>
      </trkpt>
      <trkpt lat="50.16295" lon="5.22479">
        <ele>197</ele>
        <time>2024-08-09T08:39:14Z</time>
      </trkpt>
      <trkpt lat="50.16303" lon="5.2249">
        <ele>197</ele>
        <time>2024-08-09T08:39:15Z</time>
      </trkpt>
      <trkpt lat="50.16308" lon="5.22504">
        <ele>197</ele>
        <time>2024-08-09T08:39:17Z</time>
      </trkpt>
      <trkpt lat="50.16337" lon="5.22579">
        <ele>196.8</ele>
        <time>2024-08-09T08:39:27Z</time>
      </trkpt>
      <trkpt lat="50.16365" lon="5.22637">
        <ele>197.6</ele>
        <time>2024-08-09T08:39:36Z</time>
      </trkpt>
      <trkpt lat="50.16369" lon="5.2264">
        <ele>197.8</ele>
        <time>2024-08-09T08:39:38Z</time>
      </trkpt>
      <trkpt lat="50.16378" lon="5.2264">
        <ele>198</ele>
        <time>2024-08-09T08:39:39Z</time>
      </trkpt>
      <trkpt lat="50.16404" lon="5.22629">
        <ele>198.6</ele>
        <time>2024-08-09T08:39:45Z</time>
      </trkpt>
      <trkpt lat="50.16409" lon="5.22627">
        <ele>199</ele>
        <time>2024-08-09T08:39:46Z</time>
      </trkpt>
      <trkpt lat="50.1643" lon="5.22617">
        <ele>200.2</ele>
        <time>2024-08-09T08:39:51Z</time>
      </trkpt>
      <trkpt lat="50.16435" lon="5.22615">
        <ele>200.2</ele>
        <time>2024-08-09T08:39:52Z</time>
      </trkpt>
      <trkpt lat="50.16448" lon="5.22608">
        <ele>201</ele>
        <time>2024-08-09T08:39:56Z</time>
      </trkpt>
      <trkpt lat="50.16457" lon="5.22605">
        <ele>201.2</ele>
        <time>2024-08-09T08:39:57Z</time>
      </trkpt>
      <trkpt lat="50.16466" lon="5.22601">
        <ele>201.8</ele>
        <time>2024-08-09T08:39:59Z</time>
      </trkpt>
      <trkpt lat="50.16471" lon="5.22599">
        <ele>202</ele>
        <time>2024-08-09T08:40:00Z</time>
      </trkpt>
      <trkpt lat="50.16486" lon="5.22596">
        <ele>202.6</ele>
        <time>2024-08-09T08:40:03Z</time>
      </trkpt>
      <trkpt lat="50.16491" lon="5.22595">
        <ele>203.2</ele>
        <time>2024-08-09T08:40:04Z</time>
      </trkpt>
      <trkpt lat="50.16496" lon="5.22594">
        <ele>203.4</ele>
        <time>2024-08-09T08:40:05Z</time>
      </trkpt>
      <trkpt lat="50.1652" lon="5.22593">
        <ele>204.4</ele>
        <time>2024-08-09T08:40:10Z</time>
      </trkpt>
      <trkpt lat="50.16529" lon="5.22591">
        <ele>204.8</ele>
        <time>2024-08-09T08:40:12Z</time>
      </trkpt>
      <trkpt lat="50.16533" lon="5.22589">
        <ele>205</ele>
        <time>2024-08-09T08:40:13Z</time>
      </trkpt>
      <trkpt lat="50.16541" lon="5.22586">
        <ele>205.4</ele>
        <time>2024-08-09T08:40:15Z</time>
      </trkpt>
      <trkpt lat="50.16545" lon="5.22583">
        <ele>205.4</ele>
        <time>2024-08-09T08:40:16Z</time>
      </trkpt>
      <trkpt lat="50.16555" lon="5.22574">
        <ele>206.2</ele>
        <time>2024-08-09T08:40:20Z</time>
      </trkpt>
      <trkpt lat="50.16567" lon="5.22562">
        <ele>206.6</ele>
        <time>2024-08-09T08:40:23Z</time>
      </trkpt>
      <trkpt lat="50.16571" lon="5.22557">
        <ele>207</ele>
        <time>2024-08-09T08:40:25Z</time>
      </trkpt>
      <trkpt lat="50.16578" lon="5.22548">
        <ele>207.8</ele>
        <time>2024-08-09T08:40:29Z</time>
      </trkpt>
      <trkpt lat="50.16579" lon="5.22545">
        <ele>208.6</ele>
        <time>2024-08-09T08:40:31Z</time>
      </trkpt>
      <trkpt lat="50.16579" lon="5.22545">
        <ele>208.8</ele>
        <time>2024-08-09T08:40:32Z</time>
      </trkpt>
      <trkpt lat="50.16579" lon="5.22545">
        <ele>209.4</ele>
        <time>2024-08-09T08:40:34Z</time>
      </trkpt>
      <trkpt lat="50.16583" lon="5.22538">
        <ele>210</ele>
        <time>2024-08-09T08:41:01Z</time>
      </trkpt>
      <trkpt lat="50.16585" lon="5.22535">
        <ele>210.2</ele>
        <time>2024-08-09T08:41:03Z</time>
      </trkpt>
      <trkpt lat="50.16588" lon="5.22531">
        <ele>210.2</ele>
        <time>2024-08-09T08:41:06Z</time>
      </trkpt>
      <trkpt lat="50.16592" lon="5.22528">
        <ele>210.4</ele>
        <time>2024-08-09T08:41:10Z</time>
      </trkpt>
      <trkpt lat="50.166" lon="5.22523">
        <ele>211.2</ele>
        <time>2024-08-09T08:41:17Z</time>
      </trkpt>
      <trkpt lat="50.16603" lon="5.22522">
        <ele>211.2</ele>
        <time>2024-08-09T08:41:19Z</time>
      </trkpt>
      <trkpt lat="50.1662" lon="5.22515">
        <ele>212</ele>
        <time>2024-08-09T08:41:27Z</time>
      </trkpt>
      <trkpt lat="50.16622" lon="5.22514">
        <ele>212.2</ele>
        <time>2024-08-09T08:41:28Z</time>
      </trkpt>
      <trkpt lat="50.16639" lon="5.22507">
        <ele>212.4</ele>
        <time>2024-08-09T08:41:34Z</time>
      </trkpt>
      <trkpt lat="50.16664" lon="5.22506">
        <ele>212.8</ele>
        <time>2024-08-09T08:41:43Z</time>
      </trkpt>
      <trkpt lat="50.16664" lon="5.22506">
        <ele>213</ele>
        <time>2024-08-09T08:41:44Z</time>
      </trkpt>
      <trkpt lat="50.16677" lon="5.22512">
        <ele>214</ele>
        <time>2024-08-09T08:41:50Z</time>
      </trkpt>
      <trkpt lat="50.16681" lon="5.22513">
        <ele>214</ele>
        <time>2024-08-09T08:41:51Z</time>
      </trkpt>
      <trkpt lat="50.16687" lon="5.22513">
        <ele>215</ele>
        <time>2024-08-09T08:41:55Z</time>
      </trkpt>
      <trkpt lat="50.16687" lon="5.22513">
        <ele>215.2</ele>
        <time>2024-08-09T08:41:56Z</time>
      </trkpt>
      <trkpt lat="50.16697" lon="5.22514">
        <ele>216.4</ele>
        <time>2024-08-09T08:42:00Z</time>
      </trkpt>
      <trkpt lat="50.16706" lon="5.22515">
        <ele>217</ele>
        <time>2024-08-09T08:42:04Z</time>
      </trkpt>
      <trkpt lat="50.16713" lon="5.22517">
        <ele>217.4</ele>
        <time>2024-08-09T08:42:07Z</time>
      </trkpt>
      <trkpt lat="50.16725" lon="5.22521">
        <ele>218.6</ele>
        <time>2024-08-09T08:42:14Z</time>
      </trkpt>
      <trkpt lat="50.16731" lon="5.22523">
        <ele>219</ele>
        <time>2024-08-09T08:42:18Z</time>
      </trkpt>
      <trkpt lat="50.16744" lon="5.22536">
        <ele>220</ele>
        <time>2024-08-09T08:43:18Z</time>
      </trkpt>
      <trkpt lat="50.16752" lon="5.22543">
        <ele>220.2</ele>
        <time>2024-08-09T08:43:25Z</time>
      </trkpt>
      <trkpt lat="50.16766" lon="5.22556">
        <ele>221</ele>
        <time>2024-08-09T08:43:33Z</time>
      </trkpt>
      <trkpt lat="50.16768" lon="5.22558">
        <ele>221.2</ele>
        <time>2024-08-09T08:43:34Z</time>
      </trkpt>
      <trkpt lat="50.16777" lon="5.22567">
        <ele>222</ele>
        <time>2024-08-09T08:43:39Z</time>
      </trkpt>
      <trkpt lat="50.16778" lon="5.22568">
        <ele>222.2</ele>
        <time>2024-08-09T08:43:40Z</time>
      </trkpt>
      <trkpt lat="50.16789" lon="5.22576">
        <ele>223.4</ele>
        <time>2024-08-09T08:43:46Z</time>
      </trkpt>
      <trkpt lat="50.1679" lon="5.22578">
        <ele>223.6</ele>
        <time>2024-08-09T08:43:47Z</time>
      </trkpt>
      <trkpt lat="50.168" lon="5.22587">
        <ele>224.4</ele>
        <time>2024-08-09T08:43:52Z</time>
      </trkpt>
      <trkpt lat="50.16805" lon="5.22593">
        <ele>224.8</ele>
        <time>2024-08-09T08:43:55Z</time>
      </trkpt>
      <trkpt lat="50.16811" lon="5.22598">
        <ele>225.6</ele>
        <time>2024-08-09T08:43:58Z</time>
      </trkpt>
      <trkpt lat="50.16821" lon="5.22611">
        <ele>226.6</ele>
        <time>2024-08-09T08:44:04Z</time>
      </trkpt>
      <trkpt lat="50.16832" lon="5.22623">
        <ele>227.6</ele>
        <time>2024-08-09T08:44:09Z</time>
      </trkpt>
      <trkpt lat="50.16836" lon="5.2263">
        <ele>228</ele>
        <time>2024-08-09T08:44:11Z</time>
      </trkpt>
      <trkpt lat="50.16839" lon="5.22635">
        <ele>228.8</ele>
        <time>2024-08-09T08:44:13Z</time>
      </trkpt>
      <trkpt lat="50.16853" lon="5.22649">
        <ele>229.8</ele>
        <time>2024-08-09T08:44:19Z</time>
      </trkpt>
      <trkpt lat="50.16863" lon="5.2266">
        <ele>231.2</ele>
        <time>2024-08-09T08:44:25Z</time>
      </trkpt>
      <trkpt lat="50.16873" lon="5.22669">
        <ele>231.8</ele>
        <time>2024-08-09T08:44:29Z</time>
      </trkpt>
      <trkpt lat="50.16877" lon="5.22672">
        <ele>232.2</ele>
        <time>2024-08-09T08:44:31Z</time>
      </trkpt>
      <trkpt lat="50.16891" lon="5.2268">
        <ele>233.2</ele>
        <time>2024-08-09T08:44:37Z</time>
      </trkpt>
      <trkpt lat="50.16905" lon="5.22689">
        <ele>234.4</ele>
        <time>2024-08-09T08:44:42Z</time>
      </trkpt>
      <trkpt lat="50.16911" lon="5.22693">
        <ele>235</ele>
        <time>2024-08-09T08:44:45Z</time>
      </trkpt>
      <trkpt lat="50.16917" lon="5.22697">
        <ele>235.4</ele>
        <time>2024-08-09T08:44:48Z</time>
      </trkpt>
      <trkpt lat="50.16928" lon="5.22703">
        <ele>236.2</ele>
        <time>2024-08-09T08:44:53Z</time>
      </trkpt>
      <trkpt lat="50.16931" lon="5.22705">
        <ele>236.4</ele>
        <time>2024-08-09T08:44:54Z</time>
      </trkpt>
      <trkpt lat="50.16942" lon="5.22709">
        <ele>237</ele>
        <time>2024-08-09T08:44:59Z</time>
      </trkpt>
      <trkpt lat="50.16946" lon="5.22711">
        <ele>237.6</ele>
        <time>2024-08-09T08:45:02Z</time>
      </trkpt>
      <trkpt lat="50.1696" lon="5.22714">
        <ele>238.2</ele>
        <time>2024-08-09T08:45:06Z</time>
      </trkpt>
      <trkpt lat="50.16963" lon="5.22715">
        <ele>238.6</ele>
        <time>2024-08-09T08:45:08Z</time>
      </trkpt>
      <trkpt lat="50.1698" lon="5.22714">
        <ele>239.8</ele>
        <time>2024-08-09T08:45:13Z</time>
      </trkpt>
      <trkpt lat="50.16994" lon="5.22709">
        <ele>240.8</ele>
        <time>2024-08-09T08:45:19Z</time>
      </trkpt>
      <trkpt lat="50.16997" lon="5.22708">
        <ele>240.8</ele>
        <time>2024-08-09T08:45:20Z</time>
      </trkpt>
      <trkpt lat="50.17011" lon="5.22697">
        <ele>241.8</ele>
        <time>2024-08-09T08:45:25Z</time>
      </trkpt>
      <trkpt lat="50.17019" lon="5.22689">
        <ele>242.6</ele>
        <time>2024-08-09T08:45:29Z</time>
      </trkpt>
      <trkpt lat="50.17024" lon="5.22684">
        <ele>243</ele>
        <time>2024-08-09T08:45:32Z</time>
      </trkpt>
      <trkpt lat="50.17038" lon="5.22674">
        <ele>244</ele>
        <time>2024-08-09T08:45:37Z</time>
      </trkpt>
      <trkpt lat="50.17038" lon="5.22674">
        <ele>244</ele>
        <time>2024-08-09T08:45:38Z</time>
      </trkpt>
      <trkpt lat="50.17059" lon="5.22665">
        <ele>245.2</ele>
        <time>2024-08-09T08:45:45Z</time>
      </trkpt>
      <trkpt lat="50.17061" lon="5.22664">
        <ele>245.4</ele>
        <time>2024-08-09T08:45:46Z</time>
      </trkpt>
      <trkpt lat="50.17075" lon="5.22664">
        <ele>246.2</ele>
        <time>2024-08-09T08:45:51Z</time>
      </trkpt>
      <trkpt lat="50.17077" lon="5.22664">
        <ele>246.4</ele>
        <time>2024-08-09T08:45:52Z</time>
      </trkpt>
      <trkpt lat="50.1709" lon="5.22672">
        <ele>247</ele>
        <time>2024-08-09T08:45:58Z</time>
      </trkpt>
      <trkpt lat="50.17098" lon="5.22678">
        <ele>247.4</ele>
        <time>2024-08-09T08:46:01Z</time>
      </trkpt>
      <trkpt lat="50.17109" lon="5.22691">
        <ele>248.2</ele>
        <time>2024-08-09T08:46:06Z</time>
      </trkpt>
      <trkpt lat="50.17112" lon="5.22694">
        <ele>248.4</ele>
        <time>2024-08-09T08:46:07Z</time>
      </trkpt>
      <trkpt lat="50.17126" lon="5.22709">
        <ele>249.6</ele>
        <time>2024-08-09T08:46:13Z</time>
      </trkpt>
      <trkpt lat="50.1713" lon="5.22714">
        <ele>250.2</ele>
        <time>2024-08-09T08:46:15Z</time>
      </trkpt>
      <trkpt lat="50.17135" lon="5.22719">
        <ele>250.6</ele>
        <time>2024-08-09T08:46:17Z</time>
      </trkpt>
      <trkpt lat="50.17147" lon="5.22733">
        <ele>251.8</ele>
        <time>2024-08-09T08:46:22Z</time>
      </trkpt>
      <trkpt lat="50.17159" lon="5.2275">
        <ele>252.6</ele>
        <time>2024-08-09T08:46:27Z</time>
      </trkpt>
      <trkpt lat="50.17165" lon="5.22757">
        <ele>253</ele>
        <time>2024-08-09T08:46:29Z</time>
      </trkpt>
      <trkpt lat="50.17169" lon="5.22763">
        <ele>253.6</ele>
        <time>2024-08-09T08:46:31Z</time>
      </trkpt>
      <trkpt lat="50.17183" lon="5.22781">
        <ele>254.8</ele>
        <time>2024-08-09T08:46:37Z</time>
      </trkpt>
      <trkpt lat="50.17183" lon="5.22781">
        <ele>255</ele>
        <time>2024-08-09T08:46:38Z</time>
      </trkpt>
      <trkpt lat="50.17194" lon="5.22795">
        <ele>255.6</ele>
        <time>2024-08-09T08:46:43Z</time>
      </trkpt>
      <trkpt lat="50.17194" lon="5.22795">
        <ele>255.8</ele>
        <time>2024-08-09T08:46:44Z</time>
      </trkpt>
      <trkpt lat="50.17209" lon="5.2281">
        <ele>256.6</ele>
        <time>2024-08-09T08:46:49Z</time>
      </trkpt>
      <trkpt lat="50.17217" lon="5.22816">
        <ele>257</ele>
        <time>2024-08-09T08:46:52Z</time>
      </trkpt>
      <trkpt lat="50.17231" lon="5.22827">
        <ele>257.8</ele>
        <time>2024-08-09T08:46:58Z</time>
      </trkpt>
      <trkpt lat="50.17233" lon="5.22829">
        <ele>258</ele>
        <time>2024-08-09T08:46:59Z</time>
      </trkpt>
      <trkpt lat="50.17248" lon="5.2284">
        <ele>258.8</ele>
        <time>2024-08-09T08:47:04Z</time>
      </trkpt>
      <trkpt lat="50.17253" lon="5.22844">
        <ele>259</ele>
        <time>2024-08-09T08:47:06Z</time>
      </trkpt>
      <trkpt lat="50.17265" lon="5.22854">
        <ele>259.6</ele>
        <time>2024-08-09T08:47:10Z</time>
      </trkpt>
      <trkpt lat="50.1727" lon="5.22857">
        <ele>260</ele>
        <time>2024-08-09T08:47:12Z</time>
      </trkpt>
      <trkpt lat="50.17283" lon="5.22866">
        <ele>260.8</ele>
        <time>2024-08-09T08:47:16Z</time>
      </trkpt>
      <trkpt lat="50.1729" lon="5.22869">
        <ele>261.2</ele>
        <time>2024-08-09T08:47:18Z</time>
      </trkpt>
      <trkpt lat="50.17298" lon="5.22876">
        <ele>261.6</ele>
        <time>2024-08-09T08:47:21Z</time>
      </trkpt>
      <trkpt lat="50.1731" lon="5.22882">
        <ele>262.2</ele>
        <time>2024-08-09T08:47:25Z</time>
      </trkpt>
      <trkpt lat="50.1731" lon="5.22882">
        <ele>262.4</ele>
        <time>2024-08-09T08:47:26Z</time>
      </trkpt>
      <trkpt lat="50.17331" lon="5.22892">
        <ele>262.8</ele>
        <time>2024-08-09T08:47:31Z</time>
      </trkpt>
      <trkpt lat="50.17351" lon="5.22905">
        <ele>263.2</ele>
        <time>2024-08-09T08:47:36Z</time>
      </trkpt>
      <trkpt lat="50.17366" lon="5.22916">
        <ele>263.4</ele>
        <time>2024-08-09T08:47:39Z</time>
      </trkpt>
      <trkpt lat="50.17381" lon="5.22927">
        <ele>263.4</ele>
        <time>2024-08-09T08:47:42Z</time>
      </trkpt>
      <trkpt lat="50.17388" lon="5.22934">
        <ele>263.4</ele>
        <time>2024-08-09T08:47:43Z</time>
      </trkpt>
      <trkpt lat="50.17413" lon="5.2297">
        <ele>263.2</ele>
        <time>2024-08-09T08:47:46Z</time>
      </trkpt>
      <trkpt lat="50.17424" lon="5.22986">
        <ele>263</ele>
        <time>2024-08-09T08:47:48Z</time>
      </trkpt>
      <trkpt lat="50.17452" lon="5.23035">
        <ele>261.8</ele>
        <time>2024-08-09T08:47:54Z</time>
      </trkpt>
      <trkpt lat="50.17457" lon="5.23043">
        <ele>260.8</ele>
        <time>2024-08-09T08:47:56Z</time>
      </trkpt>
      <trkpt lat="50.17466" lon="5.23058">
        <ele>260.4</ele>
        <time>2024-08-09T08:47:57Z</time>
      </trkpt>
      <trkpt lat="50.1748" lon="5.23078">
        <ele>259.8</ele>
        <time>2024-08-09T08:48:00Z</time>
      </trkpt>
      <trkpt lat="50.17495" lon="5.23096">
        <ele>259.6</ele>
        <time>2024-08-09T08:48:03Z</time>
      </trkpt>
      <trkpt lat="50.175" lon="5.231">
        <ele>259.6</ele>
        <time>2024-08-09T08:48:04Z</time>
      </trkpt>
      <trkpt lat="50.17516" lon="5.23107">
        <ele>259.6</ele>
        <time>2024-08-09T08:48:08Z</time>
      </trkpt>
      <trkpt lat="50.1754" lon="5.2311">
        <ele>259.8</ele>
        <time>2024-08-09T08:48:13Z</time>
      </trkpt>
      <trkpt lat="50.17556" lon="5.23112">
        <ele>261</ele>
        <time>2024-08-09T08:48:18Z</time>
      </trkpt>
      <trkpt lat="50.17565" lon="5.23113">
        <ele>261.8</ele>
        <time>2024-08-09T08:48:21Z</time>
      </trkpt>
      <trkpt lat="50.17568" lon="5.23114">
        <ele>262.4</ele>
        <time>2024-08-09T08:48:22Z</time>
      </trkpt>
      <trkpt lat="50.17578" lon="5.23115">
        <ele>263.6</ele>
        <time>2024-08-09T08:48:26Z</time>
      </trkpt>
      <trkpt lat="50.17588" lon="5.23116">
        <ele>263.8</ele>
        <time>2024-08-09T08:48:28Z</time>
      </trkpt>
      <trkpt lat="50.176" lon="5.23116">
        <ele>264.6</ele>
        <time>2024-08-09T08:48:32Z</time>
      </trkpt>
      <trkpt lat="50.17609" lon="5.23119">
        <ele>264.8</ele>
        <time>2024-08-09T08:48:33Z</time>
      </trkpt>
      <trkpt lat="50.17623" lon="5.23125">
        <ele>265.6</ele>
        <time>2024-08-09T08:48:36Z</time>
      </trkpt>
      <trkpt lat="50.17628" lon="5.23129">
        <ele>265.8</ele>
        <time>2024-08-09T08:48:37Z</time>
      </trkpt>
      <trkpt lat="50.17637" lon="5.23139">
        <ele>266.2</ele>
        <time>2024-08-09T08:48:39Z</time>
      </trkpt>
      <trkpt lat="50.17646" lon="5.23149">
        <ele>266.8</ele>
        <time>2024-08-09T08:48:41Z</time>
      </trkpt>
      <trkpt lat="50.17662" lon="5.23171">
        <ele>267.6</ele>
        <time>2024-08-09T08:48:45Z</time>
      </trkpt>
      <trkpt lat="50.17671" lon="5.23182">
        <ele>267.8</ele>
        <time>2024-08-09T08:48:47Z</time>
      </trkpt>
      <trkpt lat="50.17695" lon="5.23208">
        <ele>268.8</ele>
        <time>2024-08-09T08:48:52Z</time>
      </trkpt>
      <trkpt lat="50.17728" lon="5.23233">
        <ele>270</ele>
        <time>2024-08-09T08:48:59Z</time>
      </trkpt>
      <trkpt lat="50.1776" lon="5.23256">
        <ele>270.4</ele>
        <time>2024-08-09T08:49:07Z</time>
      </trkpt>
      <trkpt lat="50.17785" lon="5.23268">
        <ele>270.6</ele>
        <time>2024-08-09T08:49:13Z</time>
      </trkpt>
      <trkpt lat="50.17794" lon="5.23273">
        <ele>270.6</ele>
        <time>2024-08-09T08:49:15Z</time>
      </trkpt>
      <trkpt lat="50.17809" lon="5.2328">
        <ele>271</ele>
        <time>2024-08-09T08:49:19Z</time>
      </trkpt>
      <trkpt lat="50.17819" lon="5.23287">
        <ele>271.4</ele>
        <time>2024-08-09T08:49:22Z</time>
      </trkpt>
      <trkpt lat="50.17834" lon="5.23304">
        <ele>271.8</ele>
        <time>2024-08-09T08:49:27Z</time>
      </trkpt>
      <trkpt lat="50.17858" lon="5.23334">
        <ele>272.8</ele>
        <time>2024-08-09T08:49:34Z</time>
      </trkpt>
      <trkpt lat="50.17887" lon="5.23366">
        <ele>273.8</ele>
        <time>2024-08-09T08:49:42Z</time>
      </trkpt>
      <trkpt lat="50.17926" lon="5.23409">
        <ele>274.8</ele>
        <time>2024-08-09T08:49:52Z</time>
      </trkpt>
      <trkpt lat="50.17933" lon="5.23419">
        <ele>275</ele>
        <time>2024-08-09T08:49:54Z</time>
      </trkpt>
      <trkpt lat="50.1796" lon="5.23451">
        <ele>275.6</ele>
        <time>2024-08-09T08:50:01Z</time>
      </trkpt>
      <trkpt lat="50.1798" lon="5.23469">
        <ele>276</ele>
        <time>2024-08-09T08:50:06Z</time>
      </trkpt>
      <trkpt lat="50.18" lon="5.23486">
        <ele>276.6</ele>
        <time>2024-08-09T08:50:11Z</time>
      </trkpt>
      <trkpt lat="50.18021" lon="5.23501">
        <ele>277.2</ele>
        <time>2024-08-09T08:50:16Z</time>
      </trkpt>
      <trkpt lat="50.18034" lon="5.2351">
        <ele>277.8</ele>
        <time>2024-08-09T08:50:20Z</time>
      </trkpt>
      <trkpt lat="50.18059" lon="5.23528">
        <ele>278.4</ele>
        <time>2024-08-09T08:50:25Z</time>
      </trkpt>
      <trkpt lat="50.18085" lon="5.23546">
        <ele>279</ele>
        <time>2024-08-09T08:50:31Z</time>
      </trkpt>
      <trkpt lat="50.18118" lon="5.23569">
        <ele>279.4</ele>
        <time>2024-08-09T08:50:39Z</time>
      </trkpt>
      <trkpt lat="50.18122" lon="5.23572">
        <ele>279.6</ele>
        <time>2024-08-09T08:50:40Z</time>
      </trkpt>
      <trkpt lat="50.18155" lon="5.23595">
        <ele>280.6</ele>
        <time>2024-08-09T08:50:48Z</time>
      </trkpt>
      <trkpt lat="50.18159" lon="5.23598">
        <ele>280.8</ele>
        <time>2024-08-09T08:50:50Z</time>
      </trkpt>
      <trkpt lat="50.18166" lon="5.23605">
        <ele>281</ele>
        <time>2024-08-09T08:50:51Z</time>
      </trkpt>
      <trkpt lat="50.1818" lon="5.23621">
        <ele>281.4</ele>
        <time>2024-08-09T08:50:55Z</time>
      </trkpt>
      <trkpt lat="50.18187" lon="5.23629">
        <ele>281.4</ele>
        <time>2024-08-09T08:50:57Z</time>
      </trkpt>
      <trkpt lat="50.18195" lon="5.23635">
        <ele>281.6</ele>
        <time>2024-08-09T08:50:59Z</time>
      </trkpt>
      <trkpt lat="50.18203" lon="5.23642">
        <ele>281.8</ele>
        <time>2024-08-09T08:51:02Z</time>
      </trkpt>
      <trkpt lat="50.18228" lon="5.23655">
        <ele>282.4</ele>
        <time>2024-08-09T08:51:08Z</time>
      </trkpt>
      <trkpt lat="50.18237" lon="5.23657">
        <ele>282.6</ele>
        <time>2024-08-09T08:51:09Z</time>
      </trkpt>
      <trkpt lat="50.18264" lon="5.23661">
        <ele>283</ele>
        <time>2024-08-09T08:51:15Z</time>
      </trkpt>
      <trkpt lat="50.18281" lon="5.23666">
        <ele>283.8</ele>
        <time>2024-08-09T08:51:20Z</time>
      </trkpt>
      <trkpt lat="50.18289" lon="5.2367">
        <ele>284</ele>
        <time>2024-08-09T08:51:21Z</time>
      </trkpt>
      <trkpt lat="50.18293" lon="5.23673">
        <ele>284.2</ele>
        <time>2024-08-09T08:51:22Z</time>
      </trkpt>
      <trkpt lat="50.18303" lon="5.23682">
        <ele>284.8</ele>
        <time>2024-08-09T08:51:25Z</time>
      </trkpt>
      <trkpt lat="50.18316" lon="5.23695">
        <ele>285.8</ele>
        <time>2024-08-09T08:51:29Z</time>
      </trkpt>
      <trkpt lat="50.18319" lon="5.23698">
        <ele>286</ele>
        <time>2024-08-09T08:51:30Z</time>
      </trkpt>
      <trkpt lat="50.18333" lon="5.23717">
        <ele>287</ele>
        <time>2024-08-09T08:51:35Z</time>
      </trkpt>
      <trkpt lat="50.18335" lon="5.2372">
        <ele>287.4</ele>
        <time>2024-08-09T08:51:36Z</time>
      </trkpt>
      <trkpt lat="50.18347" lon="5.23738">
        <ele>288.6</ele>
        <time>2024-08-09T08:51:41Z</time>
      </trkpt>
      <trkpt lat="50.18352" lon="5.23746">
        <ele>289</ele>
        <time>2024-08-09T08:51:43Z</time>
      </trkpt>
      <trkpt lat="50.18359" lon="5.23758">
        <ele>289.8</ele>
        <time>2024-08-09T08:51:46Z</time>
      </trkpt>
      <trkpt lat="50.18371" lon="5.23779">
        <ele>290.8</ele>
        <time>2024-08-09T08:51:51Z</time>
      </trkpt>
      <trkpt lat="50.18376" lon="5.23787">
        <ele>291.2</ele>
        <time>2024-08-09T08:51:53Z</time>
      </trkpt>
      <trkpt lat="50.18382" lon="5.23795">
        <ele>291.8</ele>
        <time>2024-08-09T08:51:56Z</time>
      </trkpt>
      <trkpt lat="50.18399" lon="5.23818">
        <ele>293</ele>
        <time>2024-08-09T08:52:02Z</time>
      </trkpt>
      <trkpt lat="50.18415" lon="5.23842">
        <ele>294</ele>
        <time>2024-08-09T08:52:07Z</time>
      </trkpt>
      <trkpt lat="50.18423" lon="5.23854">
        <ele>294.4</ele>
        <time>2024-08-09T08:52:10Z</time>
      </trkpt>
      <trkpt lat="50.18437" lon="5.23873">
        <ele>295.2</ele>
        <time>2024-08-09T08:52:15Z</time>
      </trkpt>
      <trkpt lat="50.18447" lon="5.23888">
        <ele>296</ele>
        <time>2024-08-09T08:52:20Z</time>
      </trkpt>
      <trkpt lat="50.18453" lon="5.23896">
        <ele>296.2</ele>
        <time>2024-08-09T08:52:21Z</time>
      </trkpt>
      <trkpt lat="50.18469" lon="5.23919">
        <ele>297.4</ele>
        <time>2024-08-09T08:52:27Z</time>
      </trkpt>
      <trkpt lat="50.18476" lon="5.23927">
        <ele>297.8</ele>
        <time>2024-08-09T08:52:29Z</time>
      </trkpt>
      <trkpt lat="50.18482" lon="5.23935">
        <ele>298.6</ele>
        <time>2024-08-09T08:52:32Z</time>
      </trkpt>
      <trkpt lat="50.18499" lon="5.23958">
        <ele>299.6</ele>
        <time>2024-08-09T08:52:37Z</time>
      </trkpt>
      <trkpt lat="50.18499" lon="5.23958">
        <ele>299.8</ele>
        <time>2024-08-09T08:52:38Z</time>
      </trkpt>
      <trkpt lat="50.18517" lon="5.23983">
        <ele>300.8</ele>
        <time>2024-08-09T08:52:44Z</time>
      </trkpt>
      <trkpt lat="50.18523" lon="5.23991">
        <ele>301</ele>
        <time>2024-08-09T08:52:45Z</time>
      </trkpt>
      <trkpt lat="50.18534" lon="5.24008">
        <ele>301.8</ele>
        <time>2024-08-09T08:52:50Z</time>
      </trkpt>
      <trkpt lat="50.18545" lon="5.24024">
        <ele>302.6</ele>
        <time>2024-08-09T08:52:53Z</time>
      </trkpt>
      <trkpt lat="50.18558" lon="5.24041">
        <ele>303</ele>
        <time>2024-08-09T08:52:57Z</time>
      </trkpt>
      <trkpt lat="50.18575" lon="5.24066">
        <ele>304</ele>
        <time>2024-08-09T08:53:03Z</time>
      </trkpt>
      <trkpt lat="50.186" lon="5.24099">
        <ele>305.2</ele>
        <time>2024-08-09T08:53:11Z</time>
      </trkpt>
      <trkpt lat="50.18602" lon="5.24103">
        <ele>305.2</ele>
        <time>2024-08-09T08:53:12Z</time>
      </trkpt>
      <trkpt lat="50.18624" lon="5.24131">
        <ele>306.2</ele>
        <time>2024-08-09T08:53:19Z</time>
      </trkpt>
      <trkpt lat="50.1863" lon="5.24139">
        <ele>306.6</ele>
        <time>2024-08-09T08:53:21Z</time>
      </trkpt>
      <trkpt lat="50.18642" lon="5.24154">
        <ele>307.4</ele>
        <time>2024-08-09T08:53:25Z</time>
      </trkpt>
      <trkpt lat="50.18648" lon="5.24163">
        <ele>307.6</ele>
        <time>2024-08-09T08:53:27Z</time>
      </trkpt>
      <trkpt lat="50.1866" lon="5.24178">
        <ele>308.4</ele>
        <time>2024-08-09T08:53:31Z</time>
      </trkpt>
      <trkpt lat="50.18672" lon="5.24194">
        <ele>309</ele>
        <time>2024-08-09T08:53:35Z</time>
      </trkpt>
      <trkpt lat="50.18678" lon="5.24202">
        <ele>309.4</ele>
        <time>2024-08-09T08:53:38Z</time>
      </trkpt>
      <trkpt lat="50.18697" lon="5.24228">
        <ele>310.2</ele>
        <time>2024-08-09T08:53:43Z</time>
      </trkpt>
      <trkpt lat="50.1871" lon="5.24248">
        <ele>310.6</ele>
        <time>2024-08-09T08:53:47Z</time>
      </trkpt>
      <trkpt lat="50.18717" lon="5.24257">
        <ele>311</ele>
        <time>2024-08-09T08:53:50Z</time>
      </trkpt>
      <trkpt lat="50.18732" lon="5.24279">
        <ele>311.8</ele>
        <time>2024-08-09T08:53:54Z</time>
      </trkpt>
      <trkpt lat="50.18736" lon="5.24283">
        <ele>312</ele>
        <time>2024-08-09T08:53:56Z</time>
      </trkpt>
      <trkpt lat="50.18742" lon="5.24291">
        <ele>312.2</ele>
        <time>2024-08-09T08:53:57Z</time>
      </trkpt>
      <trkpt lat="50.18752" lon="5.24302">
        <ele>312.8</ele>
        <time>2024-08-09T08:54:00Z</time>
      </trkpt>
      <trkpt lat="50.18775" lon="5.24334">
        <ele>313.8</ele>
        <time>2024-08-09T08:54:07Z</time>
      </trkpt>
      <trkpt lat="50.18775" lon="5.24334">
        <ele>313.8</ele>
        <time>2024-08-09T08:54:08Z</time>
      </trkpt>
      <trkpt lat="50.18808" lon="5.24376">
        <ele>314.8</ele>
        <time>2024-08-09T08:54:17Z</time>
      </trkpt>
      <trkpt lat="50.18812" lon="5.2438">
        <ele>315</ele>
        <time>2024-08-09T08:54:18Z</time>
      </trkpt>
      <trkpt lat="50.18836" lon="5.24411">
        <ele>316</ele>
        <time>2024-08-09T08:54:26Z</time>
      </trkpt>
      <trkpt lat="50.1885" lon="5.24429">
        <ele>316.2</ele>
        <time>2024-08-09T08:54:29Z</time>
      </trkpt>
      <trkpt lat="50.18881" lon="5.24473">
        <ele>316.8</ele>
        <time>2024-08-09T08:54:38Z</time>
      </trkpt>
      <trkpt lat="50.18896" lon="5.24499">
        <ele>316.8</ele>
        <time>2024-08-09T08:54:41Z</time>
      </trkpt>
      <trkpt lat="50.18904" lon="5.24513">
        <ele>317.2</ele>
        <time>2024-08-09T08:54:44Z</time>
      </trkpt>
      <trkpt lat="50.18941" lon="5.24575">
        <ele>317.4</ele>
        <time>2024-08-09T08:54:52Z</time>
      </trkpt>
      <trkpt lat="50.18945" lon="5.24582">
        <ele>317.4</ele>
        <time>2024-08-09T08:54:53Z</time>
      </trkpt>
      <trkpt lat="50.18977" lon="5.24635">
        <ele>317.4</ele>
        <time>2024-08-09T08:55:01Z</time>
      </trkpt>
      <trkpt lat="50.19013" lon="5.24703">
        <ele>317.4</ele>
        <time>2024-08-09T08:55:10Z</time>
      </trkpt>
      <trkpt lat="50.19041" lon="5.24764">
        <ele>317.2</ele>
        <time>2024-08-09T08:55:17Z</time>
      </trkpt>
      <trkpt lat="50.19075" lon="5.24841">
        <ele>316.8</ele>
        <time>2024-08-09T08:55:25Z</time>
      </trkpt>
      <trkpt lat="50.19084" lon="5.24861">
        <ele>316.6</ele>
        <time>2024-08-09T08:55:27Z</time>
      </trkpt>
      <trkpt lat="50.19114" lon="5.24912">
        <ele>316.2</ele>
        <time>2024-08-09T08:55:33Z</time>
      </trkpt>
      <trkpt lat="50.1912" lon="5.24918">
        <ele>316.2</ele>
        <time>2024-08-09T08:55:34Z</time>
      </trkpt>
      <trkpt lat="50.1914" lon="5.24928">
        <ele>315.8</ele>
        <time>2024-08-09T08:55:38Z</time>
      </trkpt>
      <trkpt lat="50.19196" lon="5.24937">
        <ele>315.6</ele>
        <time>2024-08-09T08:55:45Z</time>
      </trkpt>
      <trkpt lat="50.19253" lon="5.24947">
        <ele>315.4</ele>
        <time>2024-08-09T08:55:53Z</time>
      </trkpt>
      <trkpt lat="50.19307" lon="5.24962">
        <ele>314.8</ele>
        <time>2024-08-09T08:56:00Z</time>
      </trkpt>
      <trkpt lat="50.19315" lon="5.24965">
        <ele>314.8</ele>
        <time>2024-08-09T08:56:01Z</time>
      </trkpt>
      <trkpt lat="50.19368" lon="5.24988">
        <ele>313.8</ele>
        <time>2024-08-09T08:56:07Z</time>
      </trkpt>
      <trkpt lat="50.19383" lon="5.24995">
        <ele>313.6</ele>
        <time>2024-08-09T08:56:08Z</time>
      </trkpt>
      <trkpt lat="50.19398" lon="5.25002">
        <ele>313</ele>
        <time>2024-08-09T08:56:10Z</time>
      </trkpt>
      <trkpt lat="50.19409" lon="5.25004">
        <ele>312.8</ele>
        <time>2024-08-09T08:56:11Z</time>
      </trkpt>
      <trkpt lat="50.19431" lon="5.25001">
        <ele>312.2</ele>
        <time>2024-08-09T08:56:13Z</time>
      </trkpt>
      <trkpt lat="50.19439" lon="5.24998">
        <ele>311.8</ele>
        <time>2024-08-09T08:56:14Z</time>
      </trkpt>
      <trkpt lat="50.19447" lon="5.24995">
        <ele>311.2</ele>
        <time>2024-08-09T08:56:15Z</time>
      </trkpt>
      <trkpt lat="50.19478" lon="5.24984">
        <ele>310.2</ele>
        <time>2024-08-09T08:56:17Z</time>
      </trkpt>
      <trkpt lat="50.19501" lon="5.24975">
        <ele>309.2</ele>
        <time>2024-08-09T08:56:19Z</time>
      </trkpt>
      <trkpt lat="50.19524" lon="5.24972">
        <ele>308.2</ele>
        <time>2024-08-09T08:56:21Z</time>
      </trkpt>
      <trkpt lat="50.19536" lon="5.24973">
        <ele>307.8</ele>
        <time>2024-08-09T08:56:22Z</time>
      </trkpt>
      <trkpt lat="50.19547" lon="5.24977">
        <ele>307.2</ele>
        <time>2024-08-09T08:56:23Z</time>
      </trkpt>
      <trkpt lat="50.19567" lon="5.24989">
        <ele>305.8</ele>
        <time>2024-08-09T08:56:25Z</time>
      </trkpt>
      <trkpt lat="50.19582" lon="5.25">
        <ele>305.6</ele>
        <time>2024-08-09T08:56:26Z</time>
      </trkpt>
      <trkpt lat="50.19597" lon="5.25012">
        <ele>304.6</ele>
        <time>2024-08-09T08:56:28Z</time>
      </trkpt>
      <trkpt lat="50.19624" lon="5.25036">
        <ele>303.8</ele>
        <time>2024-08-09T08:56:31Z</time>
      </trkpt>
      <trkpt lat="50.19629" lon="5.2504">
        <ele>303.2</ele>
        <time>2024-08-09T08:56:32Z</time>
      </trkpt>
      <trkpt lat="50.19634" lon="5.25044">
        <ele>302.8</ele>
        <time>2024-08-09T08:56:33Z</time>
      </trkpt>
      <trkpt lat="50.19664" lon="5.2507">
        <ele>302</ele>
        <time>2024-08-09T08:56:36Z</time>
      </trkpt>
      <trkpt lat="50.19671" lon="5.25076">
        <ele>301.4</ele>
        <time>2024-08-09T08:56:38Z</time>
      </trkpt>
      <trkpt lat="50.19688" lon="5.25089">
        <ele>301</ele>
        <time>2024-08-09T08:56:40Z</time>
      </trkpt>
      <trkpt lat="50.19693" lon="5.25089">
        <ele>300.6</ele>
        <time>2024-08-09T08:56:41Z</time>
      </trkpt>
      <trkpt lat="50.19704" lon="5.25084">
        <ele>300.2</ele>
        <time>2024-08-09T08:56:44Z</time>
      </trkpt>
      <trkpt lat="50.19712" lon="5.25071">
        <ele>300</ele>
        <time>2024-08-09T08:56:45Z</time>
      </trkpt>
      <trkpt lat="50.19715" lon="5.25062">
        <ele>299.8</ele>
        <time>2024-08-09T08:56:46Z</time>
      </trkpt>
      <trkpt lat="50.19719" lon="5.25053">
        <ele>299.8</ele>
        <time>2024-08-09T08:56:47Z</time>
      </trkpt>
      <trkpt lat="50.19744" lon="5.24983">
        <ele>299</ele>
        <time>2024-08-09T08:56:54Z</time>
      </trkpt>
      <trkpt lat="50.19748" lon="5.24972">
        <ele>298.8</ele>
        <time>2024-08-09T08:56:56Z</time>
      </trkpt>
      <trkpt lat="50.19752" lon="5.24956">
        <ele>298.8</ele>
        <time>2024-08-09T08:56:57Z</time>
      </trkpt>
      <trkpt lat="50.19759" lon="5.24924">
        <ele>298.6</ele>
        <time>2024-08-09T08:56:59Z</time>
      </trkpt>
      <trkpt lat="50.19758" lon="5.24895">
        <ele>297.8</ele>
        <time>2024-08-09T08:57:02Z</time>
      </trkpt>
      <trkpt lat="50.19754" lon="5.24875">
        <ele>297.4</ele>
        <time>2024-08-09T08:57:03Z</time>
      </trkpt>
      <trkpt lat="50.19737" lon="5.24792">
        <ele>296.2</ele>
        <time>2024-08-09T08:57:07Z</time>
      </trkpt>
      <trkpt lat="50.19735" lon="5.24781">
        <ele>295.8</ele>
        <time>2024-08-09T08:57:08Z</time>
      </trkpt>
      <trkpt lat="50.19732" lon="5.24771">
        <ele>295</ele>
        <time>2024-08-09T08:57:09Z</time>
      </trkpt>
      <trkpt lat="50.19722" lon="5.24728">
        <ele>293.8</ele>
        <time>2024-08-09T08:57:11Z</time>
      </trkpt>
      <trkpt lat="50.19712" lon="5.24699">
        <ele>292.6</ele>
        <time>2024-08-09T08:57:13Z</time>
      </trkpt>
      <trkpt lat="50.19698" lon="5.24657">
        <ele>291.4</ele>
        <time>2024-08-09T08:57:16Z</time>
      </trkpt>
      <trkpt lat="50.19685" lon="5.24613">
        <ele>290.2</ele>
        <time>2024-08-09T08:57:19Z</time>
      </trkpt>
      <trkpt lat="50.19672" lon="5.24564">
        <ele>289.2</ele>
        <time>2024-08-09T08:57:22Z</time>
      </trkpt>
      <trkpt lat="50.19661" lon="5.2453">
        <ele>288.2</ele>
        <time>2024-08-09T08:57:24Z</time>
      </trkpt>
      <trkpt lat="50.19656" lon="5.24512">
        <ele>287.4</ele>
        <time>2024-08-09T08:57:25Z</time>
      </trkpt>
      <trkpt lat="50.19652" lon="5.245">
        <ele>286.2</ele>
        <time>2024-08-09T08:57:26Z</time>
      </trkpt>
      <trkpt lat="50.19649" lon="5.24488">
        <ele>285.2</ele>
        <time>2024-08-09T08:57:27Z</time>
      </trkpt>
      <trkpt lat="50.19634" lon="5.24438">
        <ele>283.4</ele>
        <time>2024-08-09T08:57:29Z</time>
      </trkpt>
      <trkpt lat="50.19628" lon="5.2442">
        <ele>282.2</ele>
        <time>2024-08-09T08:57:30Z</time>
      </trkpt>
      <trkpt lat="50.19622" lon="5.24403">
        <ele>281</ele>
        <time>2024-08-09T08:57:31Z</time>
      </trkpt>
      <trkpt lat="50.19617" lon="5.2439">
        <ele>280</ele>
        <time>2024-08-09T08:57:32Z</time>
      </trkpt>
      <trkpt lat="50.19612" lon="5.24378">
        <ele>279</ele>
        <time>2024-08-09T08:57:33Z</time>
      </trkpt>
      <trkpt lat="50.19602" lon="5.24354">
        <ele>278</ele>
        <time>2024-08-09T08:57:34Z</time>
      </trkpt>
      <trkpt lat="50.19596" lon="5.24338">
        <ele>276.8</ele>
        <time>2024-08-09T08:57:35Z</time>
      </trkpt>
      <trkpt lat="50.19589" lon="5.24322">
        <ele>275.6</ele>
        <time>2024-08-09T08:57:36Z</time>
      </trkpt>
      <trkpt lat="50.19584" lon="5.24306">
        <ele>273.2</ele>
        <time>2024-08-09T08:57:37Z</time>
      </trkpt>
      <trkpt lat="50.19581" lon="5.24293">
        <ele>272.2</ele>
        <time>2024-08-09T08:57:38Z</time>
      </trkpt>
      <trkpt lat="50.19578" lon="5.2428">
        <ele>270.8</ele>
        <time>2024-08-09T08:57:39Z</time>
      </trkpt>
      <trkpt lat="50.19573" lon="5.24253">
        <ele>269.6</ele>
        <time>2024-08-09T08:57:40Z</time>
      </trkpt>
      <trkpt lat="50.1957" lon="5.24235">
        <ele>268.8</ele>
        <time>2024-08-09T08:57:41Z</time>
      </trkpt>
      <trkpt lat="50.19567" lon="5.24216">
        <ele>267.4</ele>
        <time>2024-08-09T08:57:42Z</time>
      </trkpt>
      <trkpt lat="50.19562" lon="5.24177">
        <ele>265.8</ele>
        <time>2024-08-09T08:57:44Z</time>
      </trkpt>
      <trkpt lat="50.19557" lon="5.24139">
        <ele>264</ele>
        <time>2024-08-09T08:57:46Z</time>
      </trkpt>
      <trkpt lat="50.19554" lon="5.24119">
        <ele>262.8</ele>
        <time>2024-08-09T08:57:47Z</time>
      </trkpt>
      <trkpt lat="50.19551" lon="5.24101">
        <ele>261.8</ele>
        <time>2024-08-09T08:57:48Z</time>
      </trkpt>
      <trkpt lat="50.19548" lon="5.24082">
        <ele>260</ele>
        <time>2024-08-09T08:57:50Z</time>
      </trkpt>
      <trkpt lat="50.1954" lon="5.24059">
        <ele>259.4</ele>
        <time>2024-08-09T08:57:51Z</time>
      </trkpt>
      <trkpt lat="50.19533" lon="5.24035">
        <ele>258.4</ele>
        <time>2024-08-09T08:57:52Z</time>
      </trkpt>
      <trkpt lat="50.19527" lon="5.24022">
        <ele>257.2</ele>
        <time>2024-08-09T08:57:53Z</time>
      </trkpt>
      <trkpt lat="50.19515" lon="5.24">
        <ele>255.4</ele>
        <time>2024-08-09T08:57:55Z</time>
      </trkpt>
      <trkpt lat="50.19513" lon="5.23993">
        <ele>254.2</ele>
        <time>2024-08-09T08:57:56Z</time>
      </trkpt>
      <trkpt lat="50.1951" lon="5.23986">
        <ele>253.2</ele>
        <time>2024-08-09T08:57:57Z</time>
      </trkpt>
      <trkpt lat="50.19506" lon="5.23972">
        <ele>252.6</ele>
        <time>2024-08-09T08:57:58Z</time>
      </trkpt>
      <trkpt lat="50.19508" lon="5.23955">
        <ele>251.2</ele>
        <time>2024-08-09T08:58:00Z</time>
      </trkpt>
      <trkpt lat="50.19512" lon="5.23947">
        <ele>250.4</ele>
        <time>2024-08-09T08:58:01Z</time>
      </trkpt>
      <trkpt lat="50.19517" lon="5.23945">
        <ele>249.4</ele>
        <time>2024-08-09T08:58:02Z</time>
      </trkpt>
      <trkpt lat="50.19521" lon="5.23943">
        <ele>248.2</ele>
        <time>2024-08-09T08:58:03Z</time>
      </trkpt>
      <trkpt lat="50.19531" lon="5.23939">
        <ele>247</ele>
        <time>2024-08-09T08:58:04Z</time>
      </trkpt>
      <trkpt lat="50.19539" lon="5.23941">
        <ele>245</ele>
        <time>2024-08-09T08:58:05Z</time>
      </trkpt>
      <trkpt lat="50.19557" lon="5.23951">
        <ele>243.2</ele>
        <time>2024-08-09T08:58:07Z</time>
      </trkpt>
      <trkpt lat="50.19576" lon="5.23959">
        <ele>241.2</ele>
        <time>2024-08-09T08:58:09Z</time>
      </trkpt>
      <trkpt lat="50.19585" lon="5.23961">
        <ele>240.2</ele>
        <time>2024-08-09T08:58:10Z</time>
      </trkpt>
      <trkpt lat="50.19594" lon="5.23961">
        <ele>239.4</ele>
        <time>2024-08-09T08:58:11Z</time>
      </trkpt>
      <trkpt lat="50.19603" lon="5.23958">
        <ele>238.6</ele>
        <time>2024-08-09T08:58:12Z</time>
      </trkpt>
      <trkpt lat="50.19612" lon="5.23952">
        <ele>237</ele>
        <time>2024-08-09T08:58:14Z</time>
      </trkpt>
      <trkpt lat="50.1962" lon="5.23934">
        <ele>236.4</ele>
        <time>2024-08-09T08:58:15Z</time>
      </trkpt>
      <trkpt lat="50.19627" lon="5.23917">
        <ele>236</ele>
        <time>2024-08-09T08:58:16Z</time>
      </trkpt>
      <trkpt lat="50.19632" lon="5.23886">
        <ele>234.6</ele>
        <time>2024-08-09T08:58:18Z</time>
      </trkpt>
      <trkpt lat="50.19635" lon="5.2387">
        <ele>233.2</ele>
        <time>2024-08-09T08:58:20Z</time>
      </trkpt>
      <trkpt lat="50.19642" lon="5.23848">
        <ele>232.6</ele>
        <time>2024-08-09T08:58:21Z</time>
      </trkpt>
      <trkpt lat="50.19649" lon="5.23826">
        <ele>231.8</ele>
        <time>2024-08-09T08:58:22Z</time>
      </trkpt>
      <trkpt lat="50.19656" lon="5.23813">
        <ele>231.2</ele>
        <time>2024-08-09T08:58:23Z</time>
      </trkpt>
      <trkpt lat="50.19664" lon="5.23799">
        <ele>230.4</ele>
        <time>2024-08-09T08:58:24Z</time>
      </trkpt>
      <trkpt lat="50.19672" lon="5.23785">
        <ele>229</ele>
        <time>2024-08-09T08:58:26Z</time>
      </trkpt>
      <trkpt lat="50.19694" lon="5.23741">
        <ele>227.2</ele>
        <time>2024-08-09T08:58:28Z</time>
      </trkpt>
      <trkpt lat="50.19701" lon="5.23725">
        <ele>226.2</ele>
        <time>2024-08-09T08:58:29Z</time>
      </trkpt>
      <trkpt lat="50.19707" lon="5.23709">
        <ele>224.8</ele>
        <time>2024-08-09T08:58:30Z</time>
      </trkpt>
      <trkpt lat="50.19713" lon="5.23694">
        <ele>222.2</ele>
        <time>2024-08-09T08:58:32Z</time>
      </trkpt>
      <trkpt lat="50.19729" lon="5.23648">
        <ele>220.6</ele>
        <time>2024-08-09T08:58:34Z</time>
      </trkpt>
      <trkpt lat="50.19735" lon="5.23633">
        <ele>219.6</ele>
        <time>2024-08-09T08:58:35Z</time>
      </trkpt>
      <trkpt lat="50.1974" lon="5.23619">
        <ele>218.6</ele>
        <time>2024-08-09T08:58:36Z</time>
      </trkpt>
      <trkpt lat="50.19745" lon="5.23604">
        <ele>217</ele>
        <time>2024-08-09T08:58:38Z</time>
      </trkpt>
      <trkpt lat="50.19761" lon="5.23564">
        <ele>215.8</ele>
        <time>2024-08-09T08:58:40Z</time>
      </trkpt>
      <trkpt lat="50.19772" lon="5.2354">
        <ele>215.4</ele>
        <time>2024-08-09T08:58:42Z</time>
      </trkpt>
      <trkpt lat="50.19805" lon="5.23461">
        <ele>215.2</ele>
        <time>2024-08-09T08:58:49Z</time>
      </trkpt>
      <trkpt lat="50.1982" lon="5.23411">
        <ele>215.6</ele>
        <time>2024-08-09T08:58:54Z</time>
      </trkpt>
      <trkpt lat="50.19835" lon="5.23354">
        <ele>216.2</ele>
        <time>2024-08-09T08:59:01Z</time>
      </trkpt>
      <trkpt lat="50.19847" lon="5.23314">
        <ele>217.2</ele>
        <time>2024-08-09T08:59:08Z</time>
      </trkpt>
      <trkpt lat="50.19857" lon="5.23285">
        <ele>218</ele>
        <time>2024-08-09T08:59:12Z</time>
      </trkpt>
      <trkpt lat="50.19859" lon="5.2328">
        <ele>218.4</ele>
        <time>2024-08-09T08:59:13Z</time>
      </trkpt>
      <trkpt lat="50.19863" lon="5.23269">
        <ele>218.8</ele>
        <time>2024-08-09T08:59:15Z</time>
      </trkpt>
      <trkpt lat="50.19871" lon="5.23248">
        <ele>219.6</ele>
        <time>2024-08-09T08:59:19Z</time>
      </trkpt>
      <trkpt lat="50.19876" lon="5.23237">
        <ele>219.8</ele>
        <time>2024-08-09T08:59:21Z</time>
      </trkpt>
      <trkpt lat="50.19886" lon="5.23215">
        <ele>220.6</ele>
        <time>2024-08-09T08:59:25Z</time>
      </trkpt>
      <trkpt lat="50.19896" lon="5.23188">
        <ele>221.8</ele>
        <time>2024-08-09T08:59:30Z</time>
      </trkpt>
      <trkpt lat="50.19898" lon="5.23182">
        <ele>222</ele>
        <time>2024-08-09T08:59:31Z</time>
      </trkpt>
      <trkpt lat="50.19902" lon="5.23171">
        <ele>222.2</ele>
        <time>2024-08-09T08:59:33Z</time>
      </trkpt>
      <trkpt lat="50.19907" lon="5.23153">
        <ele>222.8</ele>
        <time>2024-08-09T08:59:36Z</time>
      </trkpt>
      <trkpt lat="50.19909" lon="5.23148">
        <ele>223.2</ele>
        <time>2024-08-09T08:59:38Z</time>
      </trkpt>
      <trkpt lat="50.19917" lon="5.23121">
        <ele>223.8</ele>
        <time>2024-08-09T08:59:42Z</time>
      </trkpt>
      <trkpt lat="50.19921" lon="5.23104">
        <ele>224.4</ele>
        <time>2024-08-09T08:59:45Z</time>
      </trkpt>
      <trkpt lat="50.19924" lon="5.23089">
        <ele>225</ele>
        <time>2024-08-09T08:59:48Z</time>
      </trkpt>
      <trkpt lat="50.19934" lon="5.23057">
        <ele>226</ele>
        <time>2024-08-09T08:59:54Z</time>
      </trkpt>
      <trkpt lat="50.19935" lon="5.23052">
        <ele>226.6</ele>
        <time>2024-08-09T08:59:56Z</time>
      </trkpt>
      <trkpt lat="50.19946" lon="5.23031">
        <ele>227.2</ele>
        <time>2024-08-09T09:00:01Z</time>
      </trkpt>
      <trkpt lat="50.19946" lon="5.23031">
        <ele>227.6</ele>
        <time>2024-08-09T09:00:04Z</time>
      </trkpt>
      <trkpt lat="50.19948" lon="5.23028">
        <ele>228.2</ele>
        <time>2024-08-09T09:01:08Z</time>
      </trkpt>
      <trkpt lat="50.1995" lon="5.23022">
        <ele>228.2</ele>
        <time>2024-08-09T09:01:10Z</time>
      </trkpt>
      <trkpt lat="50.19956" lon="5.23008">
        <ele>228.2</ele>
        <time>2024-08-09T09:01:15Z</time>
      </trkpt>
      <trkpt lat="50.1996" lon="5.22997">
        <ele>228.4</ele>
        <time>2024-08-09T09:01:18Z</time>
      </trkpt>
      <trkpt lat="50.19974" lon="5.22956">
        <ele>229</ele>
        <time>2024-08-09T09:01:27Z</time>
      </trkpt>
      <trkpt lat="50.19986" lon="5.22912">
        <ele>230.2</ele>
        <time>2024-08-09T09:01:36Z</time>
      </trkpt>
      <trkpt lat="50.19987" lon="5.22907">
        <ele>230.8</ele>
        <time>2024-08-09T09:01:38Z</time>
      </trkpt>
      <trkpt lat="50.19991" lon="5.22893">
        <ele>231.4</ele>
        <time>2024-08-09T09:01:40Z</time>
      </trkpt>
      <trkpt lat="50.19999" lon="5.22873">
        <ele>232.4</ele>
        <time>2024-08-09T09:01:45Z</time>
      </trkpt>
      <trkpt lat="50.20011" lon="5.2284">
        <ele>233.2</ele>
        <time>2024-08-09T09:01:52Z</time>
      </trkpt>
      <trkpt lat="50.20012" lon="5.22828">
        <ele>233.4</ele>
        <time>2024-08-09T09:01:54Z</time>
      </trkpt>
      <trkpt lat="50.20015" lon="5.22797">
        <ele>233.8</ele>
        <time>2024-08-09T09:01:59Z</time>
      </trkpt>
      <trkpt lat="50.20022" lon="5.22747">
        <ele>234.2</ele>
        <time>2024-08-09T09:02:08Z</time>
      </trkpt>
      <trkpt lat="50.20032" lon="5.22704">
        <ele>234.4</ele>
        <time>2024-08-09T09:02:14Z</time>
      </trkpt>
      <trkpt lat="50.20037" lon="5.22686">
        <ele>234.6</ele>
        <time>2024-08-09T09:02:17Z</time>
      </trkpt>
      <trkpt lat="50.20047" lon="5.22638">
        <ele>235.6</ele>
        <time>2024-08-09T09:02:26Z</time>
      </trkpt>
      <trkpt lat="50.20061" lon="5.22574">
        <ele>236.4</ele>
        <time>2024-08-09T09:02:36Z</time>
      </trkpt>
      <trkpt lat="50.20064" lon="5.22568">
        <ele>236.6</ele>
        <time>2024-08-09T09:02:38Z</time>
      </trkpt>
      <trkpt lat="50.20076" lon="5.22543">
        <ele>237.8</ele>
        <time>2024-08-09T09:02:42Z</time>
      </trkpt>
      <trkpt lat="50.20083" lon="5.22528">
        <ele>238</ele>
        <time>2024-08-09T09:02:45Z</time>
      </trkpt>
      <trkpt lat="50.20093" lon="5.22508">
        <ele>238.8</ele>
        <time>2024-08-09T09:02:49Z</time>
      </trkpt>
      <trkpt lat="50.20107" lon="5.22478">
        <ele>239.8</ele>
        <time>2024-08-09T09:02:55Z</time>
      </trkpt>
      <trkpt lat="50.20107" lon="5.22478">
        <ele>240</ele>
        <time>2024-08-09T09:02:56Z</time>
      </trkpt>
      <trkpt lat="50.20128" lon="5.22434">
        <ele>240.8</ele>
        <time>2024-08-09T09:03:04Z</time>
      </trkpt>
      <trkpt lat="50.2013" lon="5.22429">
        <ele>241</ele>
        <time>2024-08-09T09:03:05Z</time>
      </trkpt>
      <trkpt lat="50.20141" lon="5.22406">
        <ele>242.2</ele>
        <time>2024-08-09T09:03:10Z</time>
      </trkpt>
      <trkpt lat="50.20153" lon="5.22385">
        <ele>243</ele>
        <time>2024-08-09T09:03:15Z</time>
      </trkpt>
      <trkpt lat="50.20156" lon="5.22382">
        <ele>243.2</ele>
        <time>2024-08-09T09:03:16Z</time>
      </trkpt>
      <trkpt lat="50.20171" lon="5.22368">
        <ele>244.4</ele>
        <time>2024-08-09T09:03:21Z</time>
      </trkpt>
      <trkpt lat="50.20178" lon="5.22364">
        <ele>244.6</ele>
        <time>2024-08-09T09:03:23Z</time>
      </trkpt>
      <trkpt lat="50.20208" lon="5.2235">
        <ele>245.4</ele>
        <time>2024-08-09T09:03:31Z</time>
      </trkpt>
      <trkpt lat="50.20215" lon="5.22346">
        <ele>245.8</ele>
        <time>2024-08-09T09:03:33Z</time>
      </trkpt>
      <trkpt lat="50.20231" lon="5.22342">
        <ele>246.6</ele>
        <time>2024-08-09T09:03:37Z</time>
      </trkpt>
      <trkpt lat="50.20241" lon="5.22336">
        <ele>247</ele>
        <time>2024-08-09T09:03:40Z</time>
      </trkpt>
      <trkpt lat="50.20265" lon="5.22314">
        <ele>247.8</ele>
        <time>2024-08-09T09:03:47Z</time>
      </trkpt>
      <trkpt lat="50.20271" lon="5.22308">
        <ele>248</ele>
        <time>2024-08-09T09:03:49Z</time>
      </trkpt>
      <trkpt lat="50.20289" lon="5.22294">
        <ele>248.8</ele>
        <time>2024-08-09T09:03:54Z</time>
      </trkpt>
      <trkpt lat="50.20305" lon="5.2228">
        <ele>249.6</ele>
        <time>2024-08-09T09:03:59Z</time>
      </trkpt>
      <trkpt lat="50.20312" lon="5.22275">
        <ele>250</ele>
        <time>2024-08-09T09:04:01Z</time>
      </trkpt>
      <trkpt lat="50.20328" lon="5.22262">
        <ele>251</ele>
        <time>2024-08-09T09:04:06Z</time>
      </trkpt>
      <trkpt lat="50.20331" lon="5.22259">
        <ele>251.4</ele>
        <time>2024-08-09T09:04:08Z</time>
      </trkpt>
      <trkpt lat="50.20351" lon="5.22242">
        <ele>252.2</ele>
        <time>2024-08-09T09:04:13Z</time>
      </trkpt>
      <trkpt lat="50.20364" lon="5.22231">
        <ele>252.8</ele>
        <time>2024-08-09T09:04:17Z</time>
      </trkpt>
      <trkpt lat="50.20371" lon="5.22226">
        <ele>253.2</ele>
        <time>2024-08-09T09:04:20Z</time>
      </trkpt>
      <trkpt lat="50.20391" lon="5.2221">
        <ele>254.4</ele>
        <time>2024-08-09T09:04:26Z</time>
      </trkpt>
      <trkpt lat="50.20404" lon="5.222">
        <ele>254.8</ele>
        <time>2024-08-09T09:04:29Z</time>
      </trkpt>
      <trkpt lat="50.20417" lon="5.22189">
        <ele>255.4</ele>
        <time>2024-08-09T09:04:33Z</time>
      </trkpt>
      <trkpt lat="50.20437" lon="5.22173">
        <ele>256.4</ele>
        <time>2024-08-09T09:04:39Z</time>
      </trkpt>
      <trkpt lat="50.2044" lon="5.2217">
        <ele>256.8</ele>
        <time>2024-08-09T09:04:40Z</time>
      </trkpt>
      <trkpt lat="50.20461" lon="5.22154">
        <ele>257.6</ele>
        <time>2024-08-09T09:04:46Z</time>
      </trkpt>
      <trkpt lat="50.20482" lon="5.22138">
        <ele>258.6</ele>
        <time>2024-08-09T09:04:52Z</time>
      </trkpt>
      <trkpt lat="50.20492" lon="5.2213">
        <ele>259.8</ele>
        <time>2024-08-09T09:04:56Z</time>
      </trkpt>
      <trkpt lat="50.20513" lon="5.22114">
        <ele>261.2</ele>
        <time>2024-08-09T09:05:01Z</time>
      </trkpt>
      <trkpt lat="50.2053" lon="5.221">
        <ele>262.4</ele>
        <time>2024-08-09T09:05:06Z</time>
      </trkpt>
      <trkpt lat="50.2055" lon="5.22084">
        <ele>262.8</ele>
        <time>2024-08-09T09:05:12Z</time>
      </trkpt>
      <trkpt lat="50.2056" lon="5.22076">
        <ele>263.2</ele>
        <time>2024-08-09T09:05:15Z</time>
      </trkpt>
      <trkpt lat="50.20584" lon="5.22056">
        <ele>264.2</ele>
        <time>2024-08-09T09:05:22Z</time>
      </trkpt>
      <trkpt lat="50.20594" lon="5.22046">
        <ele>264.6</ele>
        <time>2024-08-09T09:05:25Z</time>
      </trkpt>
      <trkpt lat="50.20608" lon="5.22032">
        <ele>265.6</ele>
        <time>2024-08-09T09:05:29Z</time>
      </trkpt>
      <trkpt lat="50.20634" lon="5.22005">
        <ele>266.6</ele>
        <time>2024-08-09T09:05:37Z</time>
      </trkpt>
      <trkpt lat="50.2066" lon="5.21974">
        <ele>267.8</ele>
        <time>2024-08-09T09:05:45Z</time>
      </trkpt>
      <trkpt lat="50.20664" lon="5.21964">
        <ele>268</ele>
        <time>2024-08-09T09:05:47Z</time>
      </trkpt>
      <trkpt lat="50.20667" lon="5.21951">
        <ele>268.2</ele>
        <time>2024-08-09T09:05:50Z</time>
      </trkpt>
      <trkpt lat="50.20667" lon="5.21938">
        <ele>268.4</ele>
        <time>2024-08-09T09:05:51Z</time>
      </trkpt>
      <trkpt lat="50.20666" lon="5.21931">
        <ele>268.4</ele>
        <time>2024-08-09T09:05:52Z</time>
      </trkpt>
      <trkpt lat="50.20661" lon="5.21913">
        <ele>268.6</ele>
        <time>2024-08-09T09:05:55Z</time>
      </trkpt>
      <trkpt lat="50.20653" lon="5.21896">
        <ele>268.8</ele>
        <time>2024-08-09T09:05:58Z</time>
      </trkpt>
      <trkpt lat="50.20629" lon="5.21845">
        <ele>269</ele>
        <time>2024-08-09T09:06:06Z</time>
      </trkpt>
      <trkpt lat="50.20595" lon="5.21771">
        <ele>268.6</ele>
        <time>2024-08-09T09:06:16Z</time>
      </trkpt>
      <trkpt lat="50.20585" lon="5.21749">
        <ele>268</ele>
        <time>2024-08-09T09:06:19Z</time>
      </trkpt>
      <trkpt lat="50.20567" lon="5.21711">
        <ele>267.8</ele>
        <time>2024-08-09T09:06:24Z</time>
      </trkpt>
      <trkpt lat="50.20564" lon="5.21704">
        <ele>267.6</ele>
        <time>2024-08-09T09:06:26Z</time>
      </trkpt>
      <trkpt lat="50.20549" lon="5.21675">
        <ele>267.4</ele>
        <time>2024-08-09T09:06:29Z</time>
      </trkpt>
      <trkpt lat="50.20511" lon="5.21606">
        <ele>266.8</ele>
        <time>2024-08-09T09:06:39Z</time>
      </trkpt>
      <trkpt lat="50.20507" lon="5.216">
        <ele>266.8</ele>
        <time>2024-08-09T09:06:40Z</time>
      </trkpt>
      <trkpt lat="50.20461" lon="5.21533">
        <ele>266.6</ele>
        <time>2024-08-09T09:06:51Z</time>
      </trkpt>
      <trkpt lat="50.20457" lon="5.21527">
        <ele>266.6</ele>
        <time>2024-08-09T09:06:52Z</time>
      </trkpt>
      <trkpt lat="50.20418" lon="5.21478">
        <ele>266.8</ele>
        <time>2024-08-09T09:07:02Z</time>
      </trkpt>
      <trkpt lat="50.20381" lon="5.21442">
        <ele>267</ele>
        <time>2024-08-09T09:07:09Z</time>
      </trkpt>
      <trkpt lat="50.20343" lon="5.21411">
        <ele>267.6</ele>
        <time>2024-08-09T09:07:17Z</time>
      </trkpt>
      <trkpt lat="50.20324" lon="5.21395">
        <ele>267.8</ele>
        <time>2024-08-09T09:07:21Z</time>
      </trkpt>
      <trkpt lat="50.20292" lon="5.21371">
        <ele>268.2</ele>
        <time>2024-08-09T09:07:27Z</time>
      </trkpt>
      <trkpt lat="50.20255" lon="5.21345">
        <ele>268.8</ele>
        <time>2024-08-09T09:07:34Z</time>
      </trkpt>
      <trkpt lat="50.20238" lon="5.21336">
        <ele>269.2</ele>
        <time>2024-08-09T09:07:37Z</time>
      </trkpt>
      <trkpt lat="50.20204" lon="5.21314">
        <ele>269.4</ele>
        <time>2024-08-09T09:07:44Z</time>
      </trkpt>
      <trkpt lat="50.20169" lon="5.21291">
        <ele>269.6</ele>
        <time>2024-08-09T09:07:50Z</time>
      </trkpt>
      <trkpt lat="50.20136" lon="5.21269">
        <ele>269.6</ele>
        <time>2024-08-09T09:07:56Z</time>
      </trkpt>
      <trkpt lat="50.20126" lon="5.21261">
        <ele>269.6</ele>
        <time>2024-08-09T09:07:57Z</time>
      </trkpt>
      <trkpt lat="50.20105" lon="5.21245">
        <ele>269.8</ele>
        <time>2024-08-09T09:08:01Z</time>
      </trkpt>
      <trkpt lat="50.20094" lon="5.21235">
        <ele>269.8</ele>
        <time>2024-08-09T09:08:03Z</time>
      </trkpt>
      <trkpt lat="50.20079" lon="5.21219">
        <ele>270.2</ele>
        <time>2024-08-09T09:08:06Z</time>
      </trkpt>
      <trkpt lat="50.20073" lon="5.21213">
        <ele>270.2</ele>
        <time>2024-08-09T09:08:07Z</time>
      </trkpt>
      <trkpt lat="50.20041" lon="5.21171">
        <ele>270.6</ele>
        <time>2024-08-09T09:08:13Z</time>
      </trkpt>
      <trkpt lat="50.20039" lon="5.21166">
        <ele>270.6</ele>
        <time>2024-08-09T09:08:14Z</time>
      </trkpt>
      <trkpt lat="50.20036" lon="5.21161">
        <ele>270.8</ele>
        <time>2024-08-09T09:08:15Z</time>
      </trkpt>
      <trkpt lat="50.20022" lon="5.2113">
        <ele>270.8</ele>
        <time>2024-08-09T09:08:18Z</time>
      </trkpt>
      <trkpt lat="50.2" lon="5.21073">
        <ele>271.2</ele>
        <time>2024-08-09T09:08:25Z</time>
      </trkpt>
      <trkpt lat="50.19982" lon="5.21024">
        <ele>271.6</ele>
        <time>2024-08-09T09:08:31Z</time>
      </trkpt>
      <trkpt lat="50.19974" lon="5.21009">
        <ele>271.8</ele>
        <time>2024-08-09T09:08:33Z</time>
      </trkpt>
      <trkpt lat="50.19952" lon="5.20969">
        <ele>272.6</ele>
        <time>2024-08-09T09:08:39Z</time>
      </trkpt>
      <trkpt lat="50.19944" lon="5.20958">
        <ele>272.8</ele>
        <time>2024-08-09T09:08:41Z</time>
      </trkpt>
      <trkpt lat="50.19925" lon="5.20929">
        <ele>273</ele>
        <time>2024-08-09T09:08:46Z</time>
      </trkpt>
      <trkpt lat="50.19921" lon="5.20925">
        <ele>273.2</ele>
        <time>2024-08-09T09:08:47Z</time>
      </trkpt>
      <trkpt lat="50.19912" lon="5.20915">
        <ele>273.2</ele>
        <time>2024-08-09T09:08:49Z</time>
      </trkpt>
      <trkpt lat="50.199" lon="5.20909">
        <ele>273.2</ele>
        <time>2024-08-09T09:08:51Z</time>
      </trkpt>
      <trkpt lat="50.19888" lon="5.20907">
        <ele>273.2</ele>
        <time>2024-08-09T09:08:53Z</time>
      </trkpt>
      <trkpt lat="50.19865" lon="5.20903">
        <ele>273.2</ele>
        <time>2024-08-09T09:08:57Z</time>
      </trkpt>
      <trkpt lat="50.19853" lon="5.20899">
        <ele>273.2</ele>
        <time>2024-08-09T09:08:59Z</time>
      </trkpt>
      <trkpt lat="50.19844" lon="5.20892">
        <ele>272.8</ele>
        <time>2024-08-09T09:09:02Z</time>
      </trkpt>
      <trkpt lat="50.19832" lon="5.20878">
        <ele>272.4</ele>
        <time>2024-08-09T09:09:05Z</time>
      </trkpt>
      <trkpt lat="50.19819" lon="5.20866">
        <ele>271.8</ele>
        <time>2024-08-09T09:09:10Z</time>
      </trkpt>
      <trkpt lat="50.19815" lon="5.20865">
        <ele>271.6</ele>
        <time>2024-08-09T09:09:11Z</time>
      </trkpt>
      <trkpt lat="50.19784" lon="5.20866">
        <ele>271.4</ele>
        <time>2024-08-09T09:09:17Z</time>
      </trkpt>
      <trkpt lat="50.19772" lon="5.20867">
        <ele>271.4</ele>
        <time>2024-08-09T09:09:19Z</time>
      </trkpt>
      <trkpt lat="50.19735" lon="5.20869">
        <ele>271.2</ele>
        <time>2024-08-09T09:09:25Z</time>
      </trkpt>
      <trkpt lat="50.19681" lon="5.20873">
        <ele>271.2</ele>
        <time>2024-08-09T09:09:33Z</time>
      </trkpt>
      <trkpt lat="50.19674" lon="5.20874">
        <ele>271.2</ele>
        <time>2024-08-09T09:09:34Z</time>
      </trkpt>
      <trkpt lat="50.19627" lon="5.2088">
        <ele>270.6</ele>
        <time>2024-08-09T09:09:40Z</time>
      </trkpt>
      <trkpt lat="50.19602" lon="5.20882">
        <ele>270.2</ele>
        <time>2024-08-09T09:09:43Z</time>
      </trkpt>
      <trkpt lat="50.1955" lon="5.20886">
        <ele>269</ele>
        <time>2024-08-09T09:09:49Z</time>
      </trkpt>
      <trkpt lat="50.19515" lon="5.20888">
        <ele>267.8</ele>
        <time>2024-08-09T09:09:53Z</time>
      </trkpt>
      <trkpt lat="50.19496" lon="5.20889">
        <ele>266.6</ele>
        <time>2024-08-09T09:09:56Z</time>
      </trkpt>
      <trkpt lat="50.19485" lon="5.20891">
        <ele>266.2</ele>
        <time>2024-08-09T09:09:57Z</time>
      </trkpt>
      <trkpt lat="50.1945" lon="5.20894">
        <ele>265.6</ele>
        <time>2024-08-09T09:10:00Z</time>
      </trkpt>
      <trkpt lat="50.19422" lon="5.20896">
        <ele>264.8</ele>
        <time>2024-08-09T09:10:03Z</time>
      </trkpt>
      <trkpt lat="50.19413" lon="5.20897">
        <ele>264.4</ele>
        <time>2024-08-09T09:10:04Z</time>
      </trkpt>
      <trkpt lat="50.19385" lon="5.209">
        <ele>263.4</ele>
        <time>2024-08-09T09:10:07Z</time>
      </trkpt>
      <trkpt lat="50.19366" lon="5.20902">
        <ele>262.4</ele>
        <time>2024-08-09T09:10:09Z</time>
      </trkpt>
      <trkpt lat="50.19337" lon="5.20904">
        <ele>260.8</ele>
        <time>2024-08-09T09:10:12Z</time>
      </trkpt>
      <trkpt lat="50.19297" lon="5.20909">
        <ele>259.6</ele>
        <time>2024-08-09T09:10:16Z</time>
      </trkpt>
      <trkpt lat="50.19267" lon="5.20912">
        <ele>258.2</ele>
        <time>2024-08-09T09:10:19Z</time>
      </trkpt>
      <trkpt lat="50.19252" lon="5.20913">
        <ele>257.8</ele>
        <time>2024-08-09T09:10:20Z</time>
      </trkpt>
      <trkpt lat="50.19237" lon="5.20915">
        <ele>256.8</ele>
        <time>2024-08-09T09:10:22Z</time>
      </trkpt>
      <trkpt lat="50.19206" lon="5.20918">
        <ele>255.6</ele>
        <time>2024-08-09T09:10:25Z</time>
      </trkpt>
      <trkpt lat="50.19184" lon="5.2092">
        <ele>254.8</ele>
        <time>2024-08-09T09:10:27Z</time>
      </trkpt>
      <trkpt lat="50.19174" lon="5.20921">
        <ele>254.4</ele>
        <time>2024-08-09T09:10:28Z</time>
      </trkpt>
      <trkpt lat="50.19143" lon="5.20924">
        <ele>253.2</ele>
        <time>2024-08-09T09:10:31Z</time>
      </trkpt>
      <trkpt lat="50.19111" lon="5.20927">
        <ele>252</ele>
        <time>2024-08-09T09:10:34Z</time>
      </trkpt>
      <trkpt lat="50.1908" lon="5.20929">
        <ele>251.2</ele>
        <time>2024-08-09T09:10:37Z</time>
      </trkpt>
      <trkpt lat="50.19069" lon="5.20929">
        <ele>250.8</ele>
        <time>2024-08-09T09:10:38Z</time>
      </trkpt>
      <trkpt lat="50.19048" lon="5.2093">
        <ele>249.8</ele>
        <time>2024-08-09T09:10:40Z</time>
      </trkpt>
      <trkpt lat="50.19006" lon="5.20933">
        <ele>248.4</ele>
        <time>2024-08-09T09:10:44Z</time>
      </trkpt>
      <trkpt lat="50.18996" lon="5.20934">
        <ele>247.8</ele>
        <time>2024-08-09T09:10:45Z</time>
      </trkpt>
      <trkpt lat="50.18976" lon="5.20935">
        <ele>247</ele>
        <time>2024-08-09T09:10:47Z</time>
      </trkpt>
      <trkpt lat="50.18944" lon="5.20938">
        <ele>245.8</ele>
        <time>2024-08-09T09:10:50Z</time>
      </trkpt>
      <trkpt lat="50.18923" lon="5.2094">
        <ele>245</ele>
        <time>2024-08-09T09:10:52Z</time>
      </trkpt>
      <trkpt lat="50.18913" lon="5.20941">
        <ele>244.4</ele>
        <time>2024-08-09T09:10:53Z</time>
      </trkpt>
      <trkpt lat="50.1888" lon="5.20946">
        <ele>243</ele>
        <time>2024-08-09T09:10:56Z</time>
      </trkpt>
      <trkpt lat="50.18847" lon="5.20948">
        <ele>241.8</ele>
        <time>2024-08-09T09:10:59Z</time>
      </trkpt>
      <trkpt lat="50.18837" lon="5.20949">
        <ele>241.4</ele>
        <time>2024-08-09T09:11:00Z</time>
      </trkpt>
      <trkpt lat="50.18825" lon="5.20951">
        <ele>240.6</ele>
        <time>2024-08-09T09:11:01Z</time>
      </trkpt>
      <trkpt lat="50.18792" lon="5.20954">
        <ele>239.4</ele>
        <time>2024-08-09T09:11:04Z</time>
      </trkpt>
      <trkpt lat="50.18759" lon="5.20958">
        <ele>238.2</ele>
        <time>2024-08-09T09:11:07Z</time>
      </trkpt>
      <trkpt lat="50.18747" lon="5.2096">
        <ele>237.8</ele>
        <time>2024-08-09T09:11:08Z</time>
      </trkpt>
      <trkpt lat="50.18715" lon="5.20963">
        <ele>236.6</ele>
        <time>2024-08-09T09:11:11Z</time>
      </trkpt>
      <trkpt lat="50.18682" lon="5.20966">
        <ele>235.6</ele>
        <time>2024-08-09T09:11:14Z</time>
      </trkpt>
      <trkpt lat="50.18648" lon="5.2097">
        <ele>234.4</ele>
        <time>2024-08-09T09:11:17Z</time>
      </trkpt>
      <trkpt lat="50.18637" lon="5.20971">
        <ele>234</ele>
        <time>2024-08-09T09:11:18Z</time>
      </trkpt>
      <trkpt lat="50.18615" lon="5.20973">
        <ele>233.2</ele>
        <time>2024-08-09T09:11:20Z</time>
      </trkpt>
      <trkpt lat="50.18581" lon="5.20977">
        <ele>231.6</ele>
        <time>2024-08-09T09:11:23Z</time>
      </trkpt>
      <trkpt lat="50.18548" lon="5.2098">
        <ele>230.2</ele>
        <time>2024-08-09T09:11:26Z</time>
      </trkpt>
      <trkpt lat="50.18515" lon="5.20984">
        <ele>229</ele>
        <time>2024-08-09T09:11:29Z</time>
      </trkpt>
      <trkpt lat="50.18493" lon="5.20986">
        <ele>227.4</ele>
        <time>2024-08-09T09:11:31Z</time>
      </trkpt>
      <trkpt lat="50.18471" lon="5.20989">
        <ele>226.4</ele>
        <time>2024-08-09T09:11:33Z</time>
      </trkpt>
      <trkpt lat="50.1846" lon="5.2099">
        <ele>226.2</ele>
        <time>2024-08-09T09:11:34Z</time>
      </trkpt>
      <trkpt lat="50.1844" lon="5.20992">
        <ele>225.4</ele>
        <time>2024-08-09T09:11:36Z</time>
      </trkpt>
      <trkpt lat="50.18397" lon="5.20996">
        <ele>224.2</ele>
        <time>2024-08-09T09:11:40Z</time>
      </trkpt>
      <trkpt lat="50.18376" lon="5.20999">
        <ele>223.6</ele>
        <time>2024-08-09T09:11:42Z</time>
      </trkpt>
      <trkpt lat="50.18355" lon="5.21001">
        <ele>223.2</ele>
        <time>2024-08-09T09:11:44Z</time>
      </trkpt>
      <trkpt lat="50.18304" lon="5.21007">
        <ele>222.2</ele>
        <time>2024-08-09T09:11:49Z</time>
      </trkpt>
      <trkpt lat="50.18293" lon="5.21008">
        <ele>221.8</ele>
        <time>2024-08-09T09:11:50Z</time>
      </trkpt>
      <trkpt lat="50.18263" lon="5.2101">
        <ele>220.8</ele>
        <time>2024-08-09T09:11:53Z</time>
      </trkpt>
      <trkpt lat="50.18223" lon="5.21012">
        <ele>219.6</ele>
        <time>2024-08-09T09:11:57Z</time>
      </trkpt>
      <trkpt lat="50.18184" lon="5.21013">
        <ele>218.4</ele>
        <time>2024-08-09T09:12:02Z</time>
      </trkpt>
      <trkpt lat="50.18172" lon="5.21014">
        <ele>218.2</ele>
        <time>2024-08-09T09:12:03Z</time>
      </trkpt>
      <trkpt lat="50.18125" lon="5.21017">
        <ele>217.2</ele>
        <time>2024-08-09T09:12:07Z</time>
      </trkpt>
      <trkpt lat="50.18076" lon="5.21021">
        <ele>216</ele>
        <time>2024-08-09T09:12:12Z</time>
      </trkpt>
      <trkpt lat="50.18066" lon="5.21022">
        <ele>215.6</ele>
        <time>2024-08-09T09:12:13Z</time>
      </trkpt>
      <trkpt lat="50.18029" lon="5.21025">
        <ele>214.8</ele>
        <time>2024-08-09T09:12:17Z</time>
      </trkpt>
      <trkpt lat="50.17985" lon="5.21029">
        <ele>214</ele>
        <time>2024-08-09T09:12:22Z</time>
      </trkpt>
      <trkpt lat="50.17968" lon="5.2103">
        <ele>213.6</ele>
        <time>2024-08-09T09:12:24Z</time>
      </trkpt>
      <trkpt lat="50.17911" lon="5.21036">
        <ele>212.6</ele>
        <time>2024-08-09T09:12:31Z</time>
      </trkpt>
      <trkpt lat="50.17895" lon="5.21038">
        <ele>212.2</ele>
        <time>2024-08-09T09:12:33Z</time>
      </trkpt>
      <trkpt lat="50.17847" lon="5.21042">
        <ele>211.6</ele>
        <time>2024-08-09T09:12:39Z</time>
      </trkpt>
      <trkpt lat="50.17831" lon="5.21043">
        <ele>211.4</ele>
        <time>2024-08-09T09:12:41Z</time>
      </trkpt>
      <trkpt lat="50.17823" lon="5.21044">
        <ele>211.2</ele>
        <time>2024-08-09T09:12:42Z</time>
      </trkpt>
      <trkpt lat="50.17769" lon="5.21049">
        <ele>210.8</ele>
        <time>2024-08-09T09:12:49Z</time>
      </trkpt>
      <trkpt lat="50.17753" lon="5.2105">
        <ele>210.8</ele>
        <time>2024-08-09T09:12:51Z</time>
      </trkpt>
      <trkpt lat="50.17724" lon="5.21053">
        <ele>210.6</ele>
        <time>2024-08-09T09:12:55Z</time>
      </trkpt>
      <trkpt lat="50.17678" lon="5.21058">
        <ele>209.6</ele>
        <time>2024-08-09T09:13:02Z</time>
      </trkpt>
      <trkpt lat="50.17663" lon="5.21059">
        <ele>209.6</ele>
        <time>2024-08-09T09:13:03Z</time>
      </trkpt>
      <trkpt lat="50.17611" lon="5.21065">
        <ele>209.2</ele>
        <time>2024-08-09T09:13:10Z</time>
      </trkpt>
      <trkpt lat="50.17562" lon="5.21073">
        <ele>209</ele>
        <time>2024-08-09T09:13:17Z</time>
      </trkpt>
      <trkpt lat="50.17526" lon="5.21077">
        <ele>208.6</ele>
        <time>2024-08-09T09:13:22Z</time>
      </trkpt>
      <trkpt lat="50.17489" lon="5.21081">
        <ele>208</ele>
        <time>2024-08-09T09:13:27Z</time>
      </trkpt>
      <trkpt lat="50.1743" lon="5.21087">
        <ele>207.6</ele>
        <time>2024-08-09T09:13:35Z</time>
      </trkpt>
      <trkpt lat="50.17415" lon="5.21089">
        <ele>207.6</ele>
        <time>2024-08-09T09:13:37Z</time>
      </trkpt>
      <trkpt lat="50.17401" lon="5.2109">
        <ele>207.4</ele>
        <time>2024-08-09T09:13:39Z</time>
      </trkpt>
      <trkpt lat="50.17372" lon="5.21093">
        <ele>207</ele>
        <time>2024-08-09T09:13:44Z</time>
      </trkpt>
      <trkpt lat="50.17326" lon="5.21098">
        <ele>206.4</ele>
        <time>2024-08-09T09:13:49Z</time>
      </trkpt>
      <trkpt lat="50.17303" lon="5.211">
        <ele>206.2</ele>
        <time>2024-08-09T09:13:52Z</time>
      </trkpt>
      <trkpt lat="50.17242" lon="5.21107">
        <ele>205.4</ele>
        <time>2024-08-09T09:14:00Z</time>
      </trkpt>
      <trkpt lat="50.17235" lon="5.21107">
        <ele>205.4</ele>
        <time>2024-08-09T09:14:02Z</time>
      </trkpt>
      <trkpt lat="50.17176" lon="5.21112">
        <ele>204.8</ele>
        <time>2024-08-09T09:14:09Z</time>
      </trkpt>
      <trkpt lat="50.17169" lon="5.21113">
        <ele>204.6</ele>
        <time>2024-08-09T09:14:10Z</time>
      </trkpt>
      <trkpt lat="50.17147" lon="5.21115">
        <ele>204.4</ele>
        <time>2024-08-09T09:14:14Z</time>
      </trkpt>
      <trkpt lat="50.17118" lon="5.21118">
        <ele>204</ele>
        <time>2024-08-09T09:14:17Z</time>
      </trkpt>
      <trkpt lat="50.1706" lon="5.21123">
        <ele>203.6</ele>
        <time>2024-08-09T09:14:25Z</time>
      </trkpt>
      <trkpt lat="50.1706" lon="5.21123">
        <ele>203.6</ele>
        <time>2024-08-09T09:14:26Z</time>
      </trkpt>
      <trkpt lat="50.1702" lon="5.21128">
        <ele>203.4</ele>
        <time>2024-08-09T09:14:31Z</time>
      </trkpt>
      <trkpt lat="50.17" lon="5.2113">
        <ele>203.4</ele>
        <time>2024-08-09T09:14:34Z</time>
      </trkpt>
      <trkpt lat="50.16975" lon="5.21133">
        <ele>203.2</ele>
        <time>2024-08-09T09:14:39Z</time>
      </trkpt>
      <trkpt lat="50.16971" lon="5.21129">
        <ele>203.2</ele>
        <time>2024-08-09T09:14:41Z</time>
      </trkpt>
      <trkpt lat="50.1697" lon="5.21124">
        <ele>203.2</ele>
        <time>2024-08-09T09:14:42Z</time>
      </trkpt>
      <trkpt lat="50.16972" lon="5.21095">
        <ele>203</ele>
        <time>2024-08-09T09:14:47Z</time>
      </trkpt>
      <trkpt lat="50.16973" lon="5.21068">
        <ele>203.2</ele>
        <time>2024-08-09T09:14:51Z</time>
      </trkpt>
      <trkpt lat="50.16973" lon="5.21045">
        <ele>203.2</ele>
        <time>2024-08-09T09:14:54Z</time>
      </trkpt>
      <trkpt lat="50.16975" lon="5.20982">
        <ele>203.6</ele>
        <time>2024-08-09T09:15:03Z</time>
      </trkpt>
      <trkpt lat="50.16976" lon="5.20967">
        <ele>203.8</ele>
        <time>2024-08-09T09:15:07Z</time>
      </trkpt>
      <trkpt lat="50.16972" lon="5.20961">
        <ele>203.8</ele>
        <time>2024-08-09T09:15:09Z</time>
      </trkpt>
      <trkpt lat="50.16966" lon="5.2096">
        <ele>203.6</ele>
        <time>2024-08-09T09:15:11Z</time>
      </trkpt>
      <trkpt lat="50.1694" lon="5.20957">
        <ele>203.8</ele>
        <time>2024-08-09T09:15:17Z</time>
      </trkpt>
      <trkpt lat="50.16891" lon="5.20948">
        <ele>204.2</ele>
        <time>2024-08-09T09:15:27Z</time>
      </trkpt>
      <trkpt lat="50.16881" lon="5.20945">
        <ele>204.4</ele>
        <time>2024-08-09T09:15:29Z</time>
      </trkpt>
      <trkpt lat="50.16847" lon="5.20937">
        <ele>205</ele>
        <time>2024-08-09T09:15:36Z</time>
      </trkpt>
      <trkpt lat="50.16832" lon="5.20934">
        <ele>205.6</ele>
        <time>2024-08-09T09:15:39Z</time>
      </trkpt>
      <trkpt lat="50.16812" lon="5.20933">
        <ele>206.6</ele>
        <time>2024-08-09T09:15:44Z</time>
      </trkpt>
      <trkpt lat="50.16801" lon="5.20932">
        <ele>206.8</ele>
        <time>2024-08-09T09:15:45Z</time>
      </trkpt>
      <trkpt lat="50.16786" lon="5.20928">
        <ele>207.2</ele>
        <time>2024-08-09T09:15:48Z</time>
      </trkpt>
      <trkpt lat="50.16775" lon="5.20925">
        <ele>207.8</ele>
        <time>2024-08-09T09:15:50Z</time>
      </trkpt>
      <trkpt lat="50.1677" lon="5.20924">
        <ele>208</ele>
        <time>2024-08-09T09:15:51Z</time>
      </trkpt>
      <trkpt lat="50.16744" lon="5.20916">
        <ele>209</ele>
        <time>2024-08-09T09:15:57Z</time>
      </trkpt>
      <trkpt lat="50.16729" lon="5.20912">
        <ele>210</ele>
        <time>2024-08-09T09:16:01Z</time>
      </trkpt>
      <trkpt lat="50.16719" lon="5.20909">
        <ele>210.4</ele>
        <time>2024-08-09T09:16:04Z</time>
      </trkpt>
      <trkpt lat="50.16706" lon="5.20899">
        <ele>210.8</ele>
        <time>2024-08-09T09:16:10Z</time>
      </trkpt>
      <trkpt lat="50.16696" lon="5.20898">
        <ele>211</ele>
        <time>2024-08-09T09:16:14Z</time>
      </trkpt>
      <trkpt lat="50.1667" lon="5.20903">
        <ele>211</ele>
        <time>2024-08-09T09:16:20Z</time>
      </trkpt>
      <trkpt lat="50.16653" lon="5.20907">
        <ele>211</ele>
        <time>2024-08-09T09:16:23Z</time>
      </trkpt>
      <trkpt lat="50.1663" lon="5.20914">
        <ele>211.4</ele>
        <time>2024-08-09T09:16:28Z</time>
      </trkpt>
      <trkpt lat="50.16592" lon="5.20927">
        <ele>211.6</ele>
        <time>2024-08-09T09:16:36Z</time>
      </trkpt>
      <trkpt lat="50.16554" lon="5.2094">
        <ele>210.6</ele>
        <time>2024-08-09T09:16:43Z</time>
      </trkpt>
      <trkpt lat="50.16524" lon="5.20955">
        <ele>210</ele>
        <time>2024-08-09T09:16:48Z</time>
      </trkpt>
      <trkpt lat="50.16505" lon="5.20964">
        <ele>209.8</ele>
        <time>2024-08-09T09:16:51Z</time>
      </trkpt>
      <trkpt lat="50.16465" lon="5.20981">
        <ele>209</ele>
        <time>2024-08-09T09:16:57Z</time>
      </trkpt>
      <trkpt lat="50.16458" lon="5.20983">
        <ele>209</ele>
        <time>2024-08-09T09:16:58Z</time>
      </trkpt>
      <trkpt lat="50.16437" lon="5.20989">
        <ele>208</ele>
        <time>2024-08-09T09:17:02Z</time>
      </trkpt>
      <trkpt lat="50.16413" lon="5.20996">
        <ele>207.4</ele>
        <time>2024-08-09T09:17:04Z</time>
      </trkpt>
      <trkpt lat="50.1639" lon="5.21002">
        <ele>206.8</ele>
        <time>2024-08-09T09:17:07Z</time>
      </trkpt>
      <trkpt lat="50.16366" lon="5.21004">
        <ele>206</ele>
        <time>2024-08-09T09:17:10Z</time>
      </trkpt>
      <trkpt lat="50.16358" lon="5.21005">
        <ele>205.8</ele>
        <time>2024-08-09T09:17:11Z</time>
      </trkpt>
      <trkpt lat="50.16305" lon="5.2101">
        <ele>204.6</ele>
        <time>2024-08-09T09:17:18Z</time>
      </trkpt>
      <trkpt lat="50.16276" lon="5.2101">
        <ele>203.4</ele>
        <time>2024-08-09T09:17:23Z</time>
      </trkpt>
      <trkpt lat="50.16266" lon="5.2101">
        <ele>202.8</ele>
        <time>2024-08-09T09:17:25Z</time>
      </trkpt>
      <trkpt lat="50.16254" lon="5.21016">
        <ele>202</ele>
        <time>2024-08-09T09:17:27Z</time>
      </trkpt>
      <trkpt lat="50.16247" lon="5.2102">
        <ele>201.4</ele>
        <time>2024-08-09T09:17:28Z</time>
      </trkpt>
      <trkpt lat="50.16235" lon="5.21029">
        <ele>200.8</ele>
        <time>2024-08-09T09:17:30Z</time>
      </trkpt>
      <trkpt lat="50.16221" lon="5.21041">
        <ele>199.6</ele>
        <time>2024-08-09T09:17:33Z</time>
      </trkpt>
      <trkpt lat="50.16215" lon="5.21042">
        <ele>198.8</ele>
        <time>2024-08-09T09:17:35Z</time>
      </trkpt>
      <trkpt lat="50.16213" lon="5.2104">
        <ele>198.4</ele>
        <time>2024-08-09T09:17:36Z</time>
      </trkpt>
      <trkpt lat="50.16206" lon="5.21026">
        <ele>197</ele>
        <time>2024-08-09T09:17:39Z</time>
      </trkpt>
      <trkpt lat="50.16205" lon="5.2102">
        <ele>196.4</ele>
        <time>2024-08-09T09:17:40Z</time>
      </trkpt>
      <trkpt lat="50.16204" lon="5.21014">
        <ele>196</ele>
        <time>2024-08-09T09:17:41Z</time>
      </trkpt>
      <trkpt lat="50.16202" lon="5.21008">
        <ele>195.8</ele>
        <time>2024-08-09T09:17:42Z</time>
      </trkpt>
      <trkpt lat="50.16195" lon="5.20989">
        <ele>195.6</ele>
        <time>2024-08-09T09:17:45Z</time>
      </trkpt>
      <trkpt lat="50.16191" lon="5.20983">
        <ele>195.6</ele>
        <time>2024-08-09T09:17:46Z</time>
      </trkpt>
      <trkpt lat="50.1618" lon="5.20965">
        <ele>195.6</ele>
        <time>2024-08-09T09:17:50Z</time>
      </trkpt>
      <trkpt lat="50.16166" lon="5.20949">
        <ele>195.6</ele>
        <time>2024-08-09T09:17:52Z</time>
      </trkpt>
      <trkpt lat="50.16114" lon="5.20891">
        <ele>195.4</ele>
        <time>2024-08-09T09:18:03Z</time>
      </trkpt>
      <trkpt lat="50.16066" lon="5.20841">
        <ele>195.2</ele>
        <time>2024-08-09T09:18:13Z</time>
      </trkpt>
      <trkpt lat="50.16024" lon="5.20788">
        <ele>195.6</ele>
        <time>2024-08-09T09:18:23Z</time>
      </trkpt>
      <trkpt lat="50.16021" lon="5.20782">
        <ele>195.6</ele>
        <time>2024-08-09T09:18:24Z</time>
      </trkpt>
      <trkpt lat="50.16" lon="5.20739">
        <ele>196.4</ele>
        <time>2024-08-09T09:18:31Z</time>
      </trkpt>
      <trkpt lat="50.15989" lon="5.20705">
        <ele>196.8</ele>
        <time>2024-08-09T09:18:36Z</time>
      </trkpt>
      <trkpt lat="50.15983" lon="5.20684">
        <ele>197.2</ele>
        <time>2024-08-09T09:18:39Z</time>
      </trkpt>
      <trkpt lat="50.15979" lon="5.20656">
        <ele>198</ele>
        <time>2024-08-09T09:18:43Z</time>
      </trkpt>
      <trkpt lat="50.15977" lon="5.20626">
        <ele>199</ele>
        <time>2024-08-09T09:18:47Z</time>
      </trkpt>
      <trkpt lat="50.15976" lon="5.20619">
        <ele>199.2</ele>
        <time>2024-08-09T09:18:48Z</time>
      </trkpt>
      <trkpt lat="50.1597" lon="5.20601">
        <ele>200</ele>
        <time>2024-08-09T09:18:51Z</time>
      </trkpt>
      <trkpt lat="50.15967" lon="5.20596">
        <ele>200.2</ele>
        <time>2024-08-09T09:18:52Z</time>
      </trkpt>
      <trkpt lat="50.15964" lon="5.20579">
        <ele>201.2</ele>
        <time>2024-08-09T09:18:55Z</time>
      </trkpt>
      <trkpt lat="50.15964" lon="5.20579">
        <ele>201.4</ele>
        <time>2024-08-09T09:18:56Z</time>
      </trkpt>
      <trkpt lat="50.15964" lon="5.20542">
        <ele>201.6</ele>
        <time>2024-08-09T09:18:59Z</time>
      </trkpt>
      <trkpt lat="50.15967" lon="5.20456">
        <ele>201.4</ele>
        <time>2024-08-09T09:19:07Z</time>
      </trkpt>
      <trkpt lat="50.15966" lon="5.20425">
        <ele>200.2</ele>
        <time>2024-08-09T09:19:11Z</time>
      </trkpt>
      <trkpt lat="50.15965" lon="5.20419">
        <ele>199.8</ele>
        <time>2024-08-09T09:19:12Z</time>
      </trkpt>
      <trkpt lat="50.15963" lon="5.20403">
        <ele>199</ele>
        <time>2024-08-09T09:19:15Z</time>
      </trkpt>
      <trkpt lat="50.15963" lon="5.20392">
        <ele>198.2</ele>
        <time>2024-08-09T09:19:17Z</time>
      </trkpt>
      <trkpt lat="50.15964" lon="5.20378">
        <ele>197.8</ele>
        <time>2024-08-09T09:19:19Z</time>
      </trkpt>
      <trkpt lat="50.15967" lon="5.20348">
        <ele>197.2</ele>
        <time>2024-08-09T09:19:23Z</time>
      </trkpt>
      <trkpt lat="50.15971" lon="5.20279">
        <ele>196.8</ele>
        <time>2024-08-09T09:19:32Z</time>
      </trkpt>
      <trkpt lat="50.15972" lon="5.20226">
        <ele>196.8</ele>
        <time>2024-08-09T09:19:37Z</time>
      </trkpt>
      <trkpt lat="50.15973" lon="5.20207">
        <ele>196.8</ele>
        <time>2024-08-09T09:19:39Z</time>
      </trkpt>
      <trkpt lat="50.15972" lon="5.20127">
        <ele>196.2</ele>
        <time>2024-08-09T09:19:47Z</time>
      </trkpt>
      <trkpt lat="50.15971" lon="5.20096">
        <ele>196</ele>
        <time>2024-08-09T09:19:50Z</time>
      </trkpt>
      <trkpt lat="50.1597" lon="5.20044">
        <ele>195.6</ele>
        <time>2024-08-09T09:19:56Z</time>
      </trkpt>
      <trkpt lat="50.15965" lon="5.19976">
        <ele>195.2</ele>
        <time>2024-08-09T09:20:01Z</time>
      </trkpt>
      <trkpt lat="50.1596" lon="5.1992">
        <ele>194.8</ele>
        <time>2024-08-09T09:20:06Z</time>
      </trkpt>
      <trkpt lat="50.15957" lon="5.19885">
        <ele>194.4</ele>
        <time>2024-08-09T09:20:09Z</time>
      </trkpt>
      <trkpt lat="50.15954" lon="5.19861">
        <ele>194.4</ele>
        <time>2024-08-09T09:20:11Z</time>
      </trkpt>
      <trkpt lat="50.15944" lon="5.19782">
        <ele>193.8</ele>
        <time>2024-08-09T09:20:18Z</time>
      </trkpt>
      <trkpt lat="50.15942" lon="5.19771">
        <ele>193.6</ele>
        <time>2024-08-09T09:20:19Z</time>
      </trkpt>
      <trkpt lat="50.1593" lon="5.19692">
        <ele>192.8</ele>
        <time>2024-08-09T09:20:26Z</time>
      </trkpt>
      <trkpt lat="50.15924" lon="5.19657">
        <ele>192.8</ele>
        <time>2024-08-09T09:20:29Z</time>
      </trkpt>
      <trkpt lat="50.15914" lon="5.19597">
        <ele>192.4</ele>
        <time>2024-08-09T09:20:34Z</time>
      </trkpt>
      <trkpt lat="50.15902" lon="5.19539">
        <ele>191.6</ele>
        <time>2024-08-09T09:20:39Z</time>
      </trkpt>
      <trkpt lat="50.15894" lon="5.19503">
        <ele>191.4</ele>
        <time>2024-08-09T09:20:42Z</time>
      </trkpt>
      <trkpt lat="50.15876" lon="5.19421">
        <ele>190.6</ele>
        <time>2024-08-09T09:20:49Z</time>
      </trkpt>
      <trkpt lat="50.15873" lon="5.1941">
        <ele>190.6</ele>
        <time>2024-08-09T09:20:50Z</time>
      </trkpt>
      <trkpt lat="50.15855" lon="5.19329">
        <ele>189.6</ele>
        <time>2024-08-09T09:20:57Z</time>
      </trkpt>
      <trkpt lat="50.1585" lon="5.19306">
        <ele>189.4</ele>
        <time>2024-08-09T09:20:59Z</time>
      </trkpt>
      <trkpt lat="50.15845" lon="5.19283">
        <ele>189.4</ele>
        <time>2024-08-09T09:21:01Z</time>
      </trkpt>
      <trkpt lat="50.1583" lon="5.19214">
        <ele>188.4</ele>
        <time>2024-08-09T09:21:07Z</time>
      </trkpt>
      <trkpt lat="50.1582" lon="5.19168">
        <ele>188</ele>
        <time>2024-08-09T09:21:11Z</time>
      </trkpt>
      <trkpt lat="50.15805" lon="5.19098">
        <ele>187.4</ele>
        <time>2024-08-09T09:21:17Z</time>
      </trkpt>
      <trkpt lat="50.15802" lon="5.19086">
        <ele>187.2</ele>
        <time>2024-08-09T09:21:18Z</time>
      </trkpt>
      <trkpt lat="50.15785" lon="5.19006">
        <ele>186.6</ele>
        <time>2024-08-09T09:21:25Z</time>
      </trkpt>
      <trkpt lat="50.1578" lon="5.18983">
        <ele>186.4</ele>
        <time>2024-08-09T09:21:27Z</time>
      </trkpt>
      <trkpt lat="50.15764" lon="5.18917">
        <ele>185.6</ele>
        <time>2024-08-09T09:21:33Z</time>
      </trkpt>
      <trkpt lat="50.1576" lon="5.18895">
        <ele>185.4</ele>
        <time>2024-08-09T09:21:35Z</time>
      </trkpt>
      <trkpt lat="50.15747" lon="5.18838">
        <ele>184.8</ele>
        <time>2024-08-09T09:21:40Z</time>
      </trkpt>
      <trkpt lat="50.15742" lon="5.18815">
        <ele>184.4</ele>
        <time>2024-08-09T09:21:42Z</time>
      </trkpt>
      <trkpt lat="50.15725" lon="5.18735">
        <ele>183.6</ele>
        <time>2024-08-09T09:21:49Z</time>
      </trkpt>
      <trkpt lat="50.15715" lon="5.18692">
        <ele>183.4</ele>
        <time>2024-08-09T09:21:53Z</time>
      </trkpt>
      <trkpt lat="50.15713" lon="5.18681">
        <ele>183.2</ele>
        <time>2024-08-09T09:21:54Z</time>
      </trkpt>
      <trkpt lat="50.15711" lon="5.1867">
        <ele>183.2</ele>
        <time>2024-08-09T09:21:56Z</time>
      </trkpt>
      <trkpt lat="50.1569" lon="5.18587">
        <ele>183</ele>
        <time>2024-08-09T09:22:03Z</time>
      </trkpt>
      <trkpt lat="50.15688" lon="5.18577">
        <ele>183</ele>
        <time>2024-08-09T09:22:04Z</time>
      </trkpt>
      <trkpt lat="50.15676" lon="5.18523">
        <ele>183</ele>
        <time>2024-08-09T09:22:09Z</time>
      </trkpt>
      <trkpt lat="50.15657" lon="5.18437">
        <ele>182.8</ele>
        <time>2024-08-09T09:22:17Z</time>
      </trkpt>
      <trkpt lat="50.15652" lon="5.18416">
        <ele>182.6</ele>
        <time>2024-08-09T09:22:20Z</time>
      </trkpt>
      <trkpt lat="50.15636" lon="5.18335">
        <ele>182.6</ele>
        <time>2024-08-09T09:22:27Z</time>
      </trkpt>
      <trkpt lat="50.1563" lon="5.18306">
        <ele>182.6</ele>
        <time>2024-08-09T09:22:30Z</time>
      </trkpt>
      <trkpt lat="50.15621" lon="5.18268">
        <ele>182.4</ele>
        <time>2024-08-09T09:22:34Z</time>
      </trkpt>
      <trkpt lat="50.15614" lon="5.18238">
        <ele>182.4</ele>
        <time>2024-08-09T09:22:38Z</time>
      </trkpt>
      <trkpt lat="50.1561" lon="5.18217">
        <ele>182.4</ele>
        <time>2024-08-09T09:22:39Z</time>
      </trkpt>
      <trkpt lat="50.15602" lon="5.18175">
        <ele>182.4</ele>
        <time>2024-08-09T09:22:43Z</time>
      </trkpt>
      <trkpt lat="50.15583" lon="5.18093">
        <ele>182.4</ele>
        <time>2024-08-09T09:22:51Z</time>
      </trkpt>
      <trkpt lat="50.15566" lon="5.1801">
        <ele>182.4</ele>
        <time>2024-08-09T09:22:59Z</time>
      </trkpt>
      <trkpt lat="50.15563" lon="5.18">
        <ele>182.4</ele>
        <time>2024-08-09T09:23:00Z</time>
      </trkpt>
      <trkpt lat="50.15543" lon="5.17916">
        <ele>182.2</ele>
        <time>2024-08-09T09:23:09Z</time>
      </trkpt>
      <trkpt lat="50.15536" lon="5.17887">
        <ele>182</ele>
        <time>2024-08-09T09:23:14Z</time>
      </trkpt>
      <trkpt lat="50.15529" lon="5.17851">
        <ele>182</ele>
        <time>2024-08-09T09:23:19Z</time>
      </trkpt>
      <trkpt lat="50.15517" lon="5.178">
        <ele>181.8</ele>
        <time>2024-08-09T09:23:26Z</time>
      </trkpt>
      <trkpt lat="50.15499" lon="5.17715">
        <ele>181.8</ele>
        <time>2024-08-09T09:23:34Z</time>
      </trkpt>
      <trkpt lat="50.15497" lon="5.17705">
        <ele>181.8</ele>
        <time>2024-08-09T09:23:35Z</time>
      </trkpt>
      <trkpt lat="50.15479" lon="5.17628">
        <ele>182</ele>
        <time>2024-08-09T09:23:44Z</time>
      </trkpt>
      <trkpt lat="50.15462" lon="5.17548">
        <ele>182</ele>
        <time>2024-08-09T09:23:51Z</time>
      </trkpt>
      <trkpt lat="50.15447" lon="5.17477">
        <ele>182</ele>
        <time>2024-08-09T09:23:58Z</time>
      </trkpt>
      <trkpt lat="50.15431" lon="5.17407">
        <ele>181.8</ele>
        <time>2024-08-09T09:24:05Z</time>
      </trkpt>
      <trkpt lat="50.15414" lon="5.17324">
        <ele>181.8</ele>
        <time>2024-08-09T09:24:13Z</time>
      </trkpt>
      <trkpt lat="50.15414" lon="5.17324">
        <ele>181.8</ele>
        <time>2024-08-09T09:24:14Z</time>
      </trkpt>
      <trkpt lat="50.15396" lon="5.17244">
        <ele>181.8</ele>
        <time>2024-08-09T09:24:21Z</time>
      </trkpt>
      <trkpt lat="50.15379" lon="5.17163">
        <ele>182</ele>
        <time>2024-08-09T09:24:29Z</time>
      </trkpt>
      <trkpt lat="50.15377" lon="5.17153">
        <ele>182</ele>
        <time>2024-08-09T09:24:30Z</time>
      </trkpt>
      <trkpt lat="50.15356" lon="5.17062">
        <ele>182</ele>
        <time>2024-08-09T09:24:39Z</time>
      </trkpt>
      <trkpt lat="50.15351" lon="5.17042">
        <ele>182</ele>
        <time>2024-08-09T09:24:41Z</time>
      </trkpt>
      <trkpt lat="50.15335" lon="5.16969">
        <ele>182</ele>
        <time>2024-08-09T09:24:48Z</time>
      </trkpt>
      <trkpt lat="50.15317" lon="5.16878">
        <ele>182</ele>
        <time>2024-08-09T09:24:57Z</time>
      </trkpt>
      <trkpt lat="50.15297" lon="5.1679">
        <ele>182.2</ele>
        <time>2024-08-09T09:25:06Z</time>
      </trkpt>
      <trkpt lat="50.15295" lon="5.1678">
        <ele>182.2</ele>
        <time>2024-08-09T09:25:08Z</time>
      </trkpt>
      <trkpt lat="50.15276" lon="5.16691">
        <ele>182.4</ele>
        <time>2024-08-09T09:25:16Z</time>
      </trkpt>
      <trkpt lat="50.15274" lon="5.16682">
        <ele>182.4</ele>
        <time>2024-08-09T09:25:17Z</time>
      </trkpt>
      <trkpt lat="50.15256" lon="5.16602">
        <ele>182.2</ele>
        <time>2024-08-09T09:25:25Z</time>
      </trkpt>
      <trkpt lat="50.15251" lon="5.16582">
        <ele>182</ele>
        <time>2024-08-09T09:25:27Z</time>
      </trkpt>
      <trkpt lat="50.15245" lon="5.16562">
        <ele>181.8</ele>
        <time>2024-08-09T09:25:29Z</time>
      </trkpt>
      <trkpt lat="50.15234" lon="5.16522">
        <ele>181.8</ele>
        <time>2024-08-09T09:25:33Z</time>
      </trkpt>
      <trkpt lat="50.15216" lon="5.16442">
        <ele>181.6</ele>
        <time>2024-08-09T09:25:41Z</time>
      </trkpt>
      <trkpt lat="50.15214" lon="5.16432">
        <ele>181.4</ele>
        <time>2024-08-09T09:25:42Z</time>
      </trkpt>
      <trkpt lat="50.15194" lon="5.16342">
        <ele>181.2</ele>
        <time>2024-08-09T09:25:51Z</time>
      </trkpt>
      <trkpt lat="50.15181" lon="5.16284">
        <ele>181</ele>
        <time>2024-08-09T09:25:57Z</time>
      </trkpt>
      <trkpt lat="50.15169" lon="5.16221">
        <ele>180.8</ele>
        <time>2024-08-09T09:26:03Z</time>
      </trkpt>
      <trkpt lat="50.15166" lon="5.1621">
        <ele>180.8</ele>
        <time>2024-08-09T09:26:04Z</time>
      </trkpt>
      <trkpt lat="50.15151" lon="5.16148">
        <ele>180.2</ele>
        <time>2024-08-09T09:26:10Z</time>
      </trkpt>
      <trkpt lat="50.1513" lon="5.16071">
        <ele>180</ele>
        <time>2024-08-09T09:26:18Z</time>
      </trkpt>
      <trkpt lat="50.15119" lon="5.16021">
        <ele>179.8</ele>
        <time>2024-08-09T09:26:23Z</time>
      </trkpt>
      <trkpt lat="50.15111" lon="5.15978">
        <ele>179.8</ele>
        <time>2024-08-09T09:26:27Z</time>
      </trkpt>
      <trkpt lat="50.15094" lon="5.15894">
        <ele>179.4</ele>
        <time>2024-08-09T09:26:35Z</time>
      </trkpt>
      <trkpt lat="50.1509" lon="5.15873">
        <ele>179.4</ele>
        <time>2024-08-09T09:26:37Z</time>
      </trkpt>
      <trkpt lat="50.15074" lon="5.15791">
        <ele>179.4</ele>
        <time>2024-08-09T09:26:45Z</time>
      </trkpt>
      <trkpt lat="50.15068" lon="5.1576">
        <ele>179.4</ele>
        <time>2024-08-09T09:26:48Z</time>
      </trkpt>
      <trkpt lat="50.15053" lon="5.15692">
        <ele>179.4</ele>
        <time>2024-08-09T09:26:56Z</time>
      </trkpt>
      <trkpt lat="50.15049" lon="5.15672">
        <ele>179.4</ele>
        <time>2024-08-09T09:26:57Z</time>
      </trkpt>
      <trkpt lat="50.15041" lon="5.15633">
        <ele>179.2</ele>
        <time>2024-08-09T09:27:02Z</time>
      </trkpt>
      <trkpt lat="50.15033" lon="5.15593">
        <ele>179.2</ele>
        <time>2024-08-09T09:27:05Z</time>
      </trkpt>
      <trkpt lat="50.15028" lon="5.15574">
        <ele>179.2</ele>
        <time>2024-08-09T09:27:08Z</time>
      </trkpt>
      <trkpt lat="50.15012" lon="5.15496">
        <ele>179</ele>
        <time>2024-08-09T09:27:15Z</time>
      </trkpt>
      <trkpt lat="50.15006" lon="5.15468">
        <ele>178.8</ele>
        <time>2024-08-09T09:27:18Z</time>
      </trkpt>
      <trkpt lat="50.14997" lon="5.1543">
        <ele>178.6</ele>
        <time>2024-08-09T09:27:22Z</time>
      </trkpt>
      <trkpt lat="50.14986" lon="5.15376">
        <ele>178.2</ele>
        <time>2024-08-09T09:27:28Z</time>
      </trkpt>
      <trkpt lat="50.14972" lon="5.15316">
        <ele>177.8</ele>
        <time>2024-08-09T09:27:35Z</time>
      </trkpt>
      <trkpt lat="50.1497" lon="5.15308">
        <ele>177.8</ele>
        <time>2024-08-09T09:27:36Z</time>
      </trkpt>
      <trkpt lat="50.14961" lon="5.15278">
        <ele>177.4</ele>
        <time>2024-08-09T09:27:41Z</time>
      </trkpt>
      <trkpt lat="50.14955" lon="5.15278">
        <ele>177.2</ele>
        <time>2024-08-09T09:27:44Z</time>
      </trkpt>
      <trkpt lat="50.14933" lon="5.15289">
        <ele>177.2</ele>
        <time>2024-08-09T09:27:49Z</time>
      </trkpt>
      <trkpt lat="50.14908" lon="5.15298">
        <ele>177.2</ele>
        <time>2024-08-09T09:27:55Z</time>
      </trkpt>
      <trkpt lat="50.14874" lon="5.15311">
        <ele>177.8</ele>
        <time>2024-08-09T09:28:03Z</time>
      </trkpt>
      <trkpt lat="50.14834" lon="5.15326">
        <ele>178.8</ele>
        <time>2024-08-09T09:28:13Z</time>
      </trkpt>
      <trkpt lat="50.14834" lon="5.15326">
        <ele>178.8</ele>
        <time>2024-08-09T09:28:14Z</time>
      </trkpt>
      <trkpt lat="50.14805" lon="5.15339">
        <ele>179.8</ele>
        <time>2024-08-09T09:28:22Z</time>
      </trkpt>
      <trkpt lat="50.14802" lon="5.15342">
        <ele>179.8</ele>
        <time>2024-08-09T09:28:23Z</time>
      </trkpt>
      <trkpt lat="50.14793" lon="5.15353">
        <ele>181</ele>
        <time>2024-08-09T09:28:27Z</time>
      </trkpt>
      <trkpt lat="50.14782" lon="5.15364">
        <ele>182</ele>
        <time>2024-08-09T09:28:31Z</time>
      </trkpt>
      <trkpt lat="50.14782" lon="5.15364">
        <ele>182.4</ele>
        <time>2024-08-09T09:28:32Z</time>
      </trkpt>
      <trkpt lat="50.14768" lon="5.15377">
        <ele>183.2</ele>
        <time>2024-08-09T09:28:36Z</time>
      </trkpt>
      <trkpt lat="50.1476" lon="5.15385">
        <ele>184.2</ele>
        <time>2024-08-09T09:28:39Z</time>
      </trkpt>
      <trkpt lat="50.14757" lon="5.15387">
        <ele>184.4</ele>
        <time>2024-08-09T09:28:40Z</time>
      </trkpt>
      <trkpt lat="50.14742" lon="5.15401">
        <ele>185.4</ele>
        <time>2024-08-09T09:28:46Z</time>
      </trkpt>
      <trkpt lat="50.14734" lon="5.15407">
        <ele>186.2</ele>
        <time>2024-08-09T09:28:49Z</time>
      </trkpt>
      <trkpt lat="50.14734" lon="5.15407">
        <ele>186.4</ele>
        <time>2024-08-09T09:28:50Z</time>
      </trkpt>
      <trkpt lat="50.1472" lon="5.15421">
        <ele>187.6</ele>
        <time>2024-08-09T09:28:56Z</time>
      </trkpt>
      <trkpt lat="50.14715" lon="5.15426">
        <ele>187.8</ele>
        <time>2024-08-09T09:28:57Z</time>
      </trkpt>
      <trkpt lat="50.14704" lon="5.15438">
        <ele>188.6</ele>
        <time>2024-08-09T09:29:01Z</time>
      </trkpt>
      <trkpt lat="50.14692" lon="5.15455">
        <ele>189.6</ele>
        <time>2024-08-09T09:29:06Z</time>
      </trkpt>
      <trkpt lat="50.14689" lon="5.15458">
        <ele>190</ele>
        <time>2024-08-09T09:29:07Z</time>
      </trkpt>
      <trkpt lat="50.14673" lon="5.15482">
        <ele>191</ele>
        <time>2024-08-09T09:29:13Z</time>
      </trkpt>
      <trkpt lat="50.14669" lon="5.1549">
        <ele>191.2</ele>
        <time>2024-08-09T09:29:15Z</time>
      </trkpt>
      <trkpt lat="50.14658" lon="5.15506">
        <ele>192.2</ele>
        <time>2024-08-09T09:29:20Z</time>
      </trkpt>
      <trkpt lat="50.14643" lon="5.15533">
        <ele>192.8</ele>
        <time>2024-08-09T09:29:25Z</time>
      </trkpt>
      <trkpt lat="50.14635" lon="5.15546">
        <ele>193.4</ele>
        <time>2024-08-09T09:29:28Z</time>
      </trkpt>
      <trkpt lat="50.14627" lon="5.15559">
        <ele>193.8</ele>
        <time>2024-08-09T09:29:32Z</time>
      </trkpt>
      <trkpt lat="50.14609" lon="5.15591">
        <ele>194.2</ele>
        <time>2024-08-09T09:29:38Z</time>
      </trkpt>
      <trkpt lat="50.14603" lon="5.15602">
        <ele>194.4</ele>
        <time>2024-08-09T09:29:39Z</time>
      </trkpt>
      <trkpt lat="50.14581" lon="5.15635">
        <ele>194.6</ele>
        <time>2024-08-09T09:29:45Z</time>
      </trkpt>
      <trkpt lat="50.14565" lon="5.15653">
        <ele>194.8</ele>
        <time>2024-08-09T09:29:49Z</time>
      </trkpt>
      <trkpt lat="50.14551" lon="5.15663">
        <ele>194.8</ele>
        <time>2024-08-09T09:29:52Z</time>
      </trkpt>
      <trkpt lat="50.14519" lon="5.15681">
        <ele>195</ele>
        <time>2024-08-09T09:29:59Z</time>
      </trkpt>
      <trkpt lat="50.1449" lon="5.15707">
        <ele>195</ele>
        <time>2024-08-09T09:30:06Z</time>
      </trkpt>
      <trkpt lat="50.14462" lon="5.15745">
        <ele>194.6</ele>
        <time>2024-08-09T09:30:12Z</time>
      </trkpt>
      <trkpt lat="50.14442" lon="5.15791">
        <ele>193.2</ele>
        <time>2024-08-09T09:30:18Z</time>
      </trkpt>
      <trkpt lat="50.14437" lon="5.15805">
        <ele>192</ele>
        <time>2024-08-09T09:30:21Z</time>
      </trkpt>
      <trkpt lat="50.14436" lon="5.15808">
        <ele>191.4</ele>
        <time>2024-08-09T09:30:22Z</time>
      </trkpt>
      <trkpt lat="50.14435" lon="5.15811">
        <ele>190.4</ele>
        <time>2024-08-09T09:30:24Z</time>
      </trkpt>
      <trkpt lat="50.14435" lon="5.15811">
        <ele>190</ele>
        <time>2024-08-09T09:30:25Z</time>
      </trkpt>
      <trkpt lat="50.14434" lon="5.15821">
        <ele>186.6</ele>
        <time>2024-08-09T09:31:04Z</time>
      </trkpt>
      <trkpt lat="50.14425" lon="5.15843">
        <ele>186.6</ele>
        <time>2024-08-09T09:31:08Z</time>
      </trkpt>
      <trkpt lat="50.14417" lon="5.15866">
        <ele>186.4</ele>
        <time>2024-08-09T09:31:10Z</time>
      </trkpt>
      <trkpt lat="50.14413" lon="5.15889">
        <ele>185.8</ele>
        <time>2024-08-09T09:31:13Z</time>
      </trkpt>
      <trkpt lat="50.14411" lon="5.15903">
        <ele>185.4</ele>
        <time>2024-08-09T09:31:15Z</time>
      </trkpt>
      <trkpt lat="50.14407" lon="5.15924">
        <ele>184.2</ele>
        <time>2024-08-09T09:31:19Z</time>
      </trkpt>
      <trkpt lat="50.14406" lon="5.15932">
        <ele>183.8</ele>
        <time>2024-08-09T09:31:20Z</time>
      </trkpt>
      <trkpt lat="50.14407" lon="5.15956">
        <ele>183</ele>
        <time>2024-08-09T09:31:22Z</time>
      </trkpt>
      <trkpt lat="50.14407" lon="5.15964">
        <ele>182.4</ele>
        <time>2024-08-09T09:31:24Z</time>
      </trkpt>
      <trkpt lat="50.14407" lon="5.1598">
        <ele>182</ele>
        <time>2024-08-09T09:31:25Z</time>
      </trkpt>
      <trkpt lat="50.14407" lon="5.1601">
        <ele>181.8</ele>
        <time>2024-08-09T09:31:30Z</time>
      </trkpt>
      <trkpt lat="50.14408" lon="5.1604">
        <ele>181.8</ele>
        <time>2024-08-09T09:31:33Z</time>
      </trkpt>
      <trkpt lat="50.14412" lon="5.16082">
        <ele>182.4</ele>
        <time>2024-08-09T09:31:39Z</time>
      </trkpt>
      <trkpt lat="50.14417" lon="5.16116">
        <ele>183</ele>
        <time>2024-08-09T09:31:45Z</time>
      </trkpt>
      <trkpt lat="50.1442" lon="5.16125">
        <ele>183</ele>
        <time>2024-08-09T09:31:47Z</time>
      </trkpt>
      <trkpt lat="50.14424" lon="5.16137">
        <ele>183.2</ele>
        <time>2024-08-09T09:31:51Z</time>
      </trkpt>
      <trkpt lat="50.14426" lon="5.16147">
        <ele>183.6</ele>
        <time>2024-08-09T09:31:55Z</time>
      </trkpt>
      <trkpt lat="50.14426" lon="5.16148">
        <ele>183.8</ele>
        <time>2024-08-09T09:31:57Z</time>
      </trkpt>
    </trkseg>
  </trk>
</gpx>